Observation data for Van Horn on 08/14/2020      Previous  Date  Next       Current Mesonet Observations  Soil Data  Daily Summary Page  Observations in Plain Language
KVA1 140500Z 18010KT 31/06 A3004 RMK A01 T03120055  RH  020%=      5-min Rain = 0
KVA1 140501Z 18012KT 31/06 A3004 RMK A01 T03120055  RH  020%=      5-min Rain = 0
KVA1 140502Z 18011KT 31/06 A3004 RMK A01 T03120055  RH  020%=      5-min Rain = 0
KVA1 140503Z 19012KT 31/06 A3004 RMK A01 T03110055  RH  020%=      5-min Rain = 0
KVA1 140504Z 19010KT 31/06 A3004 RMK A01 T03110055  RH  020%=      5-min Rain = 0
KVA1 140505Z 19010KT 31/06 A3004 RMK A01 T03110055  RH  020%=      5-min Rain = 0
KVA1 140506Z 20009KT 31/06 A3004 RMK A01 T03100055  RH  020%=      5-min Rain = 0
KVA1 140507Z 19010KT 31/06 A3004 RMK A01 T03090055  RH  020%=      5-min Rain = 0
KVA1 140508Z 19008KT 31/06 A3004 RMK A01 T03080055  RH  020%=      5-min Rain = 0
KVA1 140509Z 19009KT 31/06 A3005 RMK A01 T03080055  RH  020%=      5-min Rain = 0
KVA1 140510Z 19009KT 31/06 A3005 RMK A01 T03070055  RH  020%=      5-min Rain = 0
KVA1 140511Z 19008KT 31/06 A3005 RMK A01 T03060055  RH  021%=      5-min Rain = 0
KVA1 140512Z 19008KT 31/06 A3005 RMK A01 T03060055  RH  021%=      5-min Rain = 0
KVA1 140513Z 19010KT 31/06 A3005 RMK A01 T03050056  RH  021%=      5-min Rain = 0
KVA1 140514Z 19008KT 31/06 A3005 RMK A01 T03050056  RH  021%=      5-min Rain = 0
KVA1 140515Z 20009KT 30/06 A3005 RMK A01 T03040056  RH  021%=      5-min Rain = 0
KVA1 140516Z 19009KT 30/06 A3005 RMK A01 T03040057  RH  021%=      5-min Rain = 0
KVA1 140517Z 19009KT 30/06 A3005 RMK A01 T03040057  RH  021%=      5-min Rain = 0
KVA1 140518Z 19009KT 30/06 A3005 RMK A01 T03040058  RH  021%=      5-min Rain = 0
KVA1 140519Z 19009KT 30/06 A3005 RMK A01 T03040058  RH  021%=      5-min Rain = 0
KVA1 140520Z 19009KT 30/06 A3005 RMK A01 T03040058  RH  021%=      5-min Rain = 0
KVA1 140521Z 19009KT 30/06 A3005 RMK A01 T03030058  RH  021%=      5-min Rain = 0
KVA1 140522Z 19010KT 30/06 A3005 RMK A01 T03030059  RH  022%=      5-min Rain = 0
KVA1 140523Z 19010KT 30/06 A3005 RMK A01 T03030059  RH  022%=      5-min Rain = 0
KVA1 140524Z 19010KT 30/06 A3005 RMK A01 T03030059  RH  022%=      5-min Rain = 0
KVA1 140525Z 19011KT 30/06 A3005 RMK A01 T03030059  RH  022%=      5-min Rain = 0
KVA1 140526Z 19009KT 30/06 A3005 RMK A01 T03020059  RH  022%=      5-min Rain = 0
KVA1 140527Z 19009KT 30/06 A3005 RMK A01 T03020060  RH  022%=      5-min Rain = 0
KVA1 140528Z 19010KT 30/06 A3005 RMK A01 T03020060  RH  022%=      5-min Rain = 0
KVA1 140529Z 19010KT 30/06 A3005 RMK A01 T03020060  RH  022%=      5-min Rain = 0
KVA1 140530Z 19010KT 30/06 A3005 RMK A01 T03020060  RH  022%=      5-min Rain = 0
KVA1 140531Z 19011KT 30/06 A3005 RMK A01 T03020061  RH  022%=      5-min Rain = 0
KVA1 140532Z 19010KT 30/06 A3005 RMK A01 T03010061  RH  022%=      5-min Rain = 0
KVA1 140533Z 20009KT 30/06 A3005 RMK A01 T03020061  RH  022%=      5-min Rain = 0
KVA1 140534Z 19009KT 30/06 A3005 RMK A01 T03010061  RH  022%=      5-min Rain = 0
KVA1 140535Z 19009KT 30/06 A3005 RMK A01 T03000061  RH  022%=      5-min Rain = 0
KVA1 140536Z 19010KT 30/06 A3005 RMK A01 T03000061  RH  022%=      5-min Rain = 0
KVA1 140537Z 19010KT 30/06 A3005 RMK A01 T03000061  RH  022%=      5-min Rain = 0
KVA1 140538Z 19010KT 30/06 A3005 RMK A01 T03000061  RH  022%=      5-min Rain = 0
KVA1 140539Z 19009KT 30/06 A3005 RMK A01 T03000061  RH  022%=      5-min Rain = 0
KVA1 140540Z 19008KT 30/06 A3005 RMK A01 T03000062  RH  022%=      5-min Rain = 0
KVA1 140541Z 19011KT 30/06 A3006 RMK A01 T02990061  RH  022%=      5-min Rain = 0
KVA1 140542Z 19010KT 30/06 A3005 RMK A01 T02990062  RH  022%=      5-min Rain = 0
KVA1 140543Z 20009G14KT 30/06 A3006 RMK A01 T02990062  RH  022%=      5-min Rain = 0
KVA1 140544Z 19008KT 30/06 A3006 RMK A01 T02980062  RH  023%=      5-min Rain = 0
KVA1 140545Z 20010KT 30/06 A3006 RMK A01 T02980062  RH  023%=      5-min Rain = 0
KVA1 140546Z 20010KT 30/06 A3006 RMK A01 T02980062  RH  023%=      5-min Rain = 0
KVA1 140547Z 19009KT 30/06 A3006 RMK A01 T02980062  RH  023%=      5-min Rain = 0
KVA1 140548Z 20009KT 30/06 A3006 RMK A01 T02980062  RH  023%=      5-min Rain = 0
KVA1 140549Z 20009KT 30/06 A3006 RMK A01 T02970062  RH  023%=      5-min Rain = 0
KVA1 140550Z 20009KT 30/06 A3006 RMK A01 T02970062  RH  023%=      5-min Rain = 0
KVA1 140551Z 19008KT 30/06 A3006 RMK A01 T02970062  RH  023%=      5-min Rain = 0
KVA1 140552Z 19011KT 30/06 A3006 RMK A01 T02960062  RH  023%=      5-min Rain = 0
KVA1 140553Z 19009KT 30/06 A3006 RMK A01 T02960063  RH  023%=      5-min Rain = 0
KVA1 140554Z 19009KT 30/06 A3006 RMK A01 T02960063  RH  023%=      5-min Rain = 0
KVA1 140555Z 19008KT 30/06 A3006 RMK A01 T02960063  RH  023%=      5-min Rain = 0
KVA1 140556Z 19009G14KT 30/06 A3006 RMK A01 T02950063  RH  023%=      5-min Rain = 0
KVA1 140557Z 19010KT 30/06 A3006 RMK A01 T02950063  RH  023%=      5-min Rain = 0
KVA1 140558Z 19009KT 30/06 A3006 RMK A01 T02950063  RH  023%=      5-min Rain = 0
KVA1 140559Z 19008KT 30/06 A3006 RMK A01 T02950063  RH  023%=      5-min Rain = 0
KVA1 140600Z 20009KT 30/06 A3006 RMK A01 T02950063  RH  023%=      5-min Rain = 0
KVA1 140601Z 20009KT 30/06 A3006 RMK A01 T02950064  RH  023%=      5-min Rain = 0
KVA1 140602Z 20009KT 30/06 A3006 RMK A01 T02950064  RH  023%=      5-min Rain = 0
KVA1 140603Z 20009KT 29/06 A3006 RMK A01 T02940063  RH  023%=      5-min Rain = 0
KVA1 140604Z 21008KT 30/06 A3006 RMK A01 T02950064  RH  023%=      5-min Rain = 0
KVA1 140605Z 21006KT 29/06 A3006 RMK A01 T02940064  RH  023%=      5-min Rain = 0
KVA1 140606Z 21007KT 29/06 A3006 RMK A01 T02940063  RH  023%=      5-min Rain = 0
KVA1 140607Z 21008KT 29/06 A3006 RMK A01 T02930064  RH  024%=      5-min Rain = 0
KVA1 140608Z 22007KT 29/06 A3006 RMK A01 T02930064  RH  024%=      5-min Rain = 0
KVA1 140609Z 22009KT 29/06 A3006 RMK A01 T02920064  RH  024%=      5-min Rain = 0
KVA1 140610Z 22008KT 29/06 A3006 RMK A01 T02920064  RH  024%=      5-min Rain = 0
KVA1 140611Z 21009KT 29/06 A3006 RMK A01 T02920064  RH  024%=      5-min Rain = 0
KVA1 140612Z 22010KT 29/06 A3006 RMK A01 T02920064  RH  024%=      5-min Rain = 0
KVA1 140613Z 22011KT 29/06 A3006 RMK A01 T02920064  RH  024%=      5-min Rain = 0
KVA1 140614Z 22009KT 29/06 A3006 RMK A01 T02930064  RH  024%=      5-min Rain = 0
KVA1 140615Z 23009KT 29/06 A3006 RMK A01 T02930064  RH  024%=      5-min Rain = 0
KVA1 140616Z 23009KT 29/06 A3006 RMK A01 T02930064  RH  024%=      5-min Rain = 0
KVA1 140617Z 24009KT 29/07 A3006 RMK A01 T02930065  RH  024%=      5-min Rain = 0
KVA1 140618Z 23010KT 29/07 A3006 RMK A01 T02930065  RH  024%=      5-min Rain = 0
KVA1 140619Z 23007KT 29/07 A3006 RMK A01 T02920066  RH  024%=      5-min Rain = 0
KVA1 140620Z 23008KT 29/07 A3006 RMK A01 T02920066  RH  024%=      5-min Rain = 0
KVA1 140621Z 23008KT 29/07 A3006 RMK A01 T02920066  RH  024%=      5-min Rain = 0
KVA1 140622Z 23010KT 29/07 A3006 RMK A01 T02930066  RH  024%=      5-min Rain = 0
KVA1 140623Z 22010KT 29/07 A3006 RMK A01 T02930066  RH  024%=      5-min Rain = 0
KVA1 140624Z 22011KT 29/07 A3006 RMK A01 T02940066  RH  024%=      5-min Rain = 0
KVA1 140625Z 21010KT 30/07 A3006 RMK A01 T02950066  RH  024%=      5-min Rain = 0
KVA1 140626Z 22011KT 30/07 A3006 RMK A01 T02950066  RH  024%=      5-min Rain = 0
KVA1 140627Z 21012KT 29/07 A3006 RMK A01 T02940065  RH  024%=      5-min Rain = 0
KVA1 140628Z 21012KT 30/07 A3006 RMK A01 T02950066  RH  024%=      5-min Rain = 0
KVA1 140629Z 21012KT 30/07 A3006 RMK A01 T02960066  RH  023%=      5-min Rain = 0
KVA1 140630Z 20011KT 30/07 A3006 RMK A01 T02950065  RH  023%=      5-min Rain = 0
KVA1 140631Z 20013KT 30/07 A3006 RMK A01 T02960066  RH  024%=      5-min Rain = 0
KVA1 140632Z 20013KT 30/07 A3006 RMK A01 T02950066  RH  024%=      5-min Rain = 0
KVA1 140633Z 20013KT 30/07 A3006 RMK A01 T02960066  RH  023%=      5-min Rain = 0
KVA1 140634Z 20012KT 30/07 A3006 RMK A01 T02960066  RH  023%=      5-min Rain = 0
KVA1 140635Z 20014KT 30/07 A3006 RMK A01 T02970066  RH  023%=      5-min Rain = 0
KVA1 140636Z 19015KT 30/07 A3006 RMK A01 T02970067  RH  024%=      5-min Rain = 0
KVA1 140637Z 20015KT 30/07 A3006 RMK A01 T02970066  RH  023%=      5-min Rain = 0
KVA1 140638Z 20014KT 30/07 A3006 RMK A01 T02970066  RH  023%=      5-min Rain = 0
KVA1 140639Z 20015G20KT 30/07 A3006 RMK A01 T02970067  RH  023%=      5-min Rain = 0
KVA1 140640Z 20012KT 30/07 A3006 RMK A01 T02970067  RH  023%=      5-min Rain = 0
KVA1 140641Z 20012KT 30/07 A3006 RMK A01 T02960066  RH  024%=      5-min Rain = 0
KVA1 140642Z 19014KT 30/07 A3006 RMK A01 T02960066  RH  024%=      5-min Rain = 0
KVA1 140643Z 19014KT 30/07 A3006 RMK A01 T02960066  RH  024%=      5-min Rain = 0
KVA1 140644Z 19014KT 30/07 A3006 RMK A01 T02960067  RH  024%=      5-min Rain = 0
KVA1 140645Z 20013KT 30/07 A3006 RMK A01 T02950066  RH  024%=      5-min Rain = 0
KVA1 140646Z 20016KT 30/07 A3006 RMK A01 T02950066  RH  024%=      5-min Rain = 0
KVA1 140647Z 19016KT 30/07 A3006 RMK A01 T02950066  RH  024%=      5-min Rain = 0
KVA1 140648Z 20013KT 30/07 A3006 RMK A01 T02950066  RH  024%=      5-min Rain = 0
KVA1 140649Z 20015KT 30/07 A3006 RMK A01 T02950066  RH  024%=      5-min Rain = 0
KVA1 140650Z 19013KT 30/07 A3006 RMK A01 T02950067  RH  024%=      5-min Rain = 0
KVA1 140651Z 19014KT 30/07 A3006 RMK A01 T02950067  RH  024%=      5-min Rain = 0
KVA1 140652Z 20014KT 29/07 A3006 RMK A01 T02940067  RH  024%=      5-min Rain = 0
KVA1 140653Z 20015G20KT 29/07 A3006 RMK A01 T02940067  RH  024%=      5-min Rain = 0
KVA1 140654Z 20015KT 29/07 A3006 RMK A01 T02940067  RH  024%=      5-min Rain = 0
KVA1 140655Z 19014KT 29/07 A3006 RMK A01 T02940067  RH  024%=      5-min Rain = 0
KVA1 140656Z 19017KT 29/07 A3006 RMK A01 T02940067  RH  024%=      5-min Rain = 0
KVA1 140657Z 19014KT 29/07 A3006 RMK A01 T02940067  RH  024%=      5-min Rain = 0
KVA1 140658Z 19013KT 30/07 A3006 RMK A01 T02950068  RH  024%=      5-min Rain = 0
KVA1 140659Z 19014G19KT 29/07 A3006 RMK A01 T02940068  RH  024%=      5-min Rain = 0
KVA1 140700Z 19014KT 29/07 A3006 RMK A01 T02930068  RH  024%=      5-min Rain = 0
KVA1 140701Z 19013G19KT 29/07 A3006 RMK A01 T02930068  RH  024%=      5-min Rain = 0
KVA1 140702Z 19014KT 29/07 A3006 RMK A01 T02920068  RH  024%=      5-min Rain = 0
KVA1 140703Z 19012KT 29/07 A3006 RMK A01 T02920068  RH  024%=      5-min Rain = 0
KVA1 140704Z 20012KT 29/07 A3006 RMK A01 T02920068  RH  024%=      5-min Rain = 0
KVA1 140705Z 19012KT 29/07 A3006 RMK A01 T02920068  RH  024%=      5-min Rain = 0
KVA1 140706Z 19012KT 29/07 A3006 RMK A01 T02910068  RH  025%=      5-min Rain = 0
KVA1 140707Z 19015KT 29/07 A3006 RMK A01 T02910069  RH  025%=      5-min Rain = 0
KVA1 140708Z 19016KT 29/07 A3006 RMK A01 T02910069  RH  025%=      5-min Rain = 0
KVA1 140709Z 18015KT 29/07 A3006 RMK A01 T02910069  RH  025%=      5-min Rain = 0
KVA1 140710Z 18018KT 29/07 A3006 RMK A01 T02910069  RH  025%=      5-min Rain = 0
KVA1 140711Z 18015KT 29/07 A3006 RMK A01 T02910069  RH  025%=      5-min Rain = 0
KVA1 140712Z 18016KT 29/07 A3006 RMK A01 T02920070  RH  025%=      5-min Rain = 0
KVA1 140713Z 18015KT 29/07 A3006 RMK A01 T02920070  RH  025%=      5-min Rain = 0
KVA1 140714Z 18014G19KT 29/07 A3006 RMK A01 T02920070  RH  025%=      5-min Rain = 0
KVA1 140715Z 18014KT 29/07 A3006 RMK A01 T02910070  RH  025%=      5-min Rain = 0
KVA1 140716Z 18013KT 29/07 A3006 RMK A01 T02910070  RH  025%=      5-min Rain = 0
KVA1 140717Z 18015KT 29/07 A3006 RMK A01 T02910070  RH  025%=      5-min Rain = 0
KVA1 140718Z 18015KT 29/07 A3006 RMK A01 T02910070  RH  025%=      5-min Rain = 0
KVA1 140719Z 18014KT 29/07 A3006 RMK A01 T02910070  RH  025%=      5-min Rain = 0
KVA1 140720Z 18012KT 29/07 A3006 RMK A01 T02900070  RH  025%=      5-min Rain = 0
KVA1 140721Z 19011KT 29/07 A3006 RMK A01 T02900070  RH  025%=      5-min Rain = 0
KVA1 140722Z 19010KT 29/07 A3006 RMK A01 T02890071  RH  025%=      5-min Rain = 0
KVA1 140723Z 19012KT 29/07 A3006 RMK A01 T02880070  RH  025%=      5-min Rain = 0
KVA1 140724Z 19012KT 29/07 A3006 RMK A01 T02880070  RH  025%=      5-min Rain = 0
KVA1 140725Z 19011KT 29/07 A3006 RMK A01 T02880070  RH  025%=      5-min Rain = 0
KVA1 140726Z 19012KT 29/07 A3006 RMK A01 T02880070  RH  025%=      5-min Rain = 0
KVA1 140727Z 19011KT 29/07 A3006 RMK A01 T02880070  RH  025%=      5-min Rain = 0
KVA1 140728Z 19012KT 29/07 A3006 RMK A01 T02880070  RH  025%=      5-min Rain = 0
KVA1 140729Z 19012KT 29/07 A3006 RMK A01 T02870070  RH  025%=      5-min Rain = 0
KVA1 140730Z 19010KT 29/07 A3006 RMK A01 T02870070  RH  025%=      5-min Rain = 0
KVA1 140731Z 19012KT 29/07 A3006 RMK A01 T02860070  RH  026%=      5-min Rain = 0
KVA1 140732Z 18013KT 29/07 A3006 RMK A01 T02860070  RH  026%=      5-min Rain = 0
KVA1 140733Z 18013KT 29/07 A3006 RMK A01 T02860070  RH  026%=      5-min Rain = 0
KVA1 140734Z 19010KT 29/07 A3006 RMK A01 T02860070  RH  026%=      5-min Rain = 0
KVA1 140735Z 18012KT 29/07 A3006 RMK A01 T02850070  RH  026%=      5-min Rain = 0
KVA1 140736Z 18010KT 29/07 A3006 RMK A01 T02850071  RH  026%=      5-min Rain = 0
KVA1 140737Z 18012KT 29/07 A3006 RMK A01 T02850071  RH  026%=      5-min Rain = 0
KVA1 140738Z 19011KT 29/07 A3006 RMK A01 T02850072  RH  026%=      5-min Rain = 0
KVA1 140739Z 19010KT 29/07 A3006 RMK A01 T02850071  RH  026%=      5-min Rain = 0
KVA1 140740Z 19008KT 29/07 A3006 RMK A01 T02850072  RH  026%=      5-min Rain = 0
KVA1 140741Z 19009KT 28/07 A3006 RMK A01 T02840071  RH  026%=      5-min Rain = 0
KVA1 140742Z 20009KT 28/07 A3006 RMK A01 T02840072  RH  026%=      5-min Rain = 0
KVA1 140743Z 20009KT 28/07 A3006 RMK A01 T02840072  RH  026%=      5-min Rain = 0
KVA1 140744Z 20009KT 28/07 A3006 RMK A01 T02840072  RH  026%=      5-min Rain = 0
KVA1 140745Z 20010KT 28/07 A3006 RMK A01 T02830072  RH  026%=      5-min Rain = 0
KVA1 140746Z 19008KT 28/07 A3006 RMK A01 T02830072  RH  026%=      5-min Rain = 0
KVA1 140747Z 19009KT 28/07 A3006 RMK A01 T02830073  RH  026%=      5-min Rain = 0
KVA1 140748Z 19009KT 28/07 A3006 RMK A01 T02830072  RH  027%=      5-min Rain = 0
KVA1 140749Z 19008KT 28/07 A3006 RMK A01 T02830072  RH  027%=      5-min Rain = 0
KVA1 140750Z 19010KT 28/07 A3006 RMK A01 T02830073  RH  027%=      5-min Rain = 0
KVA1 140751Z 19008KT 28/07 A3006 RMK A01 T02830073  RH  027%=      5-min Rain = 0
KVA1 140752Z 19009KT 28/07 A3006 RMK A01 T02820073  RH  027%=      5-min Rain = 0
KVA1 140753Z 19008KT 28/07 A3006 RMK A01 T02820073  RH  027%=      5-min Rain = 0
KVA1 140754Z 19007KT 28/07 A3006 RMK A01 T02820073  RH  027%=      5-min Rain = 0
KVA1 140755Z 19008KT 28/07 A3006 RMK A01 T02820073  RH  027%=      5-min Rain = 0
KVA1 140756Z 19008KT 28/07 A3006 RMK A01 T02810074  RH  027%=      5-min Rain = 0
KVA1 140757Z 19008KT 28/07 A3006 RMK A01 T02810074  RH  027%=      5-min Rain = 0
KVA1 140758Z 19008KT 28/07 A3006 RMK A01 T02810074  RH  027%=      5-min Rain = 0
KVA1 140759Z 19007KT 28/07 A3006 RMK A01 T02810073  RH  027%=      5-min Rain = 0
KVA1 140800Z 19008KT 28/07 A3006 RMK A01 T02800073  RH  027%=      5-min Rain = 0
KVA1 140801Z 19008KT 28/07 A3006 RMK A01 T02800074  RH  027%=      5-min Rain = 0
KVA1 140802Z 19009KT 28/07 A3006 RMK A01 T02800074  RH  027%=      5-min Rain = 0
KVA1 140803Z 19008KT 28/07 A3006 RMK A01 T02800074  RH  027%=      5-min Rain = 0
KVA1 140804Z 19007KT 28/07 A3006 RMK A01 T02800074  RH  027%=      5-min Rain = 0
KVA1 140805Z 19007KT 28/07 A3006 RMK A01 T02800074  RH  027%=      5-min Rain = 0
KVA1 140806Z 18006KT 28/07 A3006 RMK A01 T02790074  RH  027%=      5-min Rain = 0
KVA1 140807Z 19007KT 28/07 A3006 RMK A01 T02790074  RH  027%=      5-min Rain = 0
KVA1 140808Z 18006KT 28/07 A3006 RMK A01 T02780074  RH  027%=      5-min Rain = 0
KVA1 140809Z 17006KT 28/07 A3006 RMK A01 T02780074  RH  028%=      5-min Rain = 0
KVA1 140810Z 18006KT 28/07 A3006 RMK A01 T02770074  RH  028%=      5-min Rain = 0
KVA1 140811Z 17005KT 28/08 A3006 RMK A01 T02770075  RH  028%=      5-min Rain = 0
KVA1 140812Z 17005KT 28/08 A3006 RMK A01 T02770075  RH  028%=      5-min Rain = 0
KVA1 140813Z 16004KT 28/08 A3007 RMK A01 T02760075  RH  028%=      5-min Rain = 0
KVA1 140814Z 16003KT 28/07 A3007 RMK A01 T02760074  RH  028%=      5-min Rain = 0
KVA1 140815Z 16003KT 28/07 A3007 RMK A01 T02750074  RH  028%=      5-min Rain = 0
KVA1 140816Z 16003KT 28/08 A3007 RMK A01 T02750075  RH  028%=      5-min Rain = 0
KVA1 140817Z 15002KT 27/08 A3007 RMK A01 T02740075  RH  028%=      5-min Rain = 0
KVA1 140818Z 14002KT 27/08 A3007 RMK A01 T02740075  RH  028%=      5-min Rain = 0
KVA1 140819Z 13002KT 27/08 A3007 RMK A01 T02730075  RH  029%=      5-min Rain = 0
KVA1 140820Z 13001KT 27/08 A3007 RMK A01 T02720075  RH  029%=      5-min Rain = 0
KVA1 140821Z 13001KT 27/07 A3007 RMK A01 T02720074  RH  029%=      5-min Rain = 0
KVA1 140822Z 18001KT 27/07 A3007 RMK A01 T02710074  RH  029%=      5-min Rain = 0
KVA1 140823Z 14000KT 27/07 A3007 RMK A01 T02700074  RH  029%=      5-min Rain = 0
KVA1 140824Z 02000KT 27/08 A3006 RMK A01 T02700075  RH  029%=      5-min Rain = 0
KVA1 140825Z 32001KT 27/07 A3007 RMK A01 T02700074  RH  029%=      5-min Rain = 0
KVA1 140826Z 32002KT 27/07 A3007 RMK A01 T02680072  RH  029%=      5-min Rain = 0
KVA1 140827Z 33002KT 27/07 A3006 RMK A01 T02660073  RH  029%=      5-min Rain = 0
KVA1 140828Z 31001KT 27/07 A3006 RMK A01 T02650072  RH  029%=      5-min Rain = 0
KVA1 140829Z 32002KT 26/07 A3006 RMK A01 T02630072  RH  030%=      5-min Rain = 0
KVA1 140830Z 31001KT 26/07 A3006 RMK A01 T02620072  RH  030%=      5-min Rain = 0
KVA1 140831Z 29001KT 26/07 A3006 RMK A01 T02620073  RH  030%=      5-min Rain = 0
KVA1 140832Z 30002KT 26/07 A3006 RMK A01 T02620073  RH  030%=      5-min Rain = 0
KVA1 140833Z 27002KT 26/07 A3006 RMK A01 T02610072  RH  030%=      5-min Rain = 0
KVA1 140834Z 28001KT 26/08 A3006 RMK A01 T02610075  RH  031%=      5-min Rain = 0
KVA1 140835Z 28001KT 26/07 A3006 RMK A01 T02610073  RH  030%=      5-min Rain = 0
KVA1 140836Z 28001KT 26/07 A3006 RMK A01 T02610074  RH  030%=      5-min Rain = 0
KVA1 140837Z 26001KT 26/07 A3006 RMK A01 T02610074  RH  030%=      5-min Rain = 0
KVA1 140838Z 30003KT 26/07 A3006 RMK A01 T02610073  RH  030%=      5-min Rain = 0
KVA1 140839Z 27002KT 26/07 A3006 RMK A01 T02600073  RH  030%=      5-min Rain = 0
KVA1 140840Z 26002KT 26/07 A3006 RMK A01 T02590073  RH  031%=      5-min Rain = 0
KVA1 140841Z 23003KT 26/07 A3006 RMK A01 T02590074  RH  031%=      5-min Rain = 0
KVA1 140842Z 22003KT 26/08 A3006 RMK A01 T02590076  RH  031%=      5-min Rain = 0
KVA1 140843Z 21003KT 26/08 A3006 RMK A01 T02600076  RH  031%=      5-min Rain = 0
KVA1 140844Z 19003KT 26/08 A3006 RMK A01 T02610075  RH  031%=      5-min Rain = 0
KVA1 140845Z 18003KT 26/08 A3006 RMK A01 T02610077  RH  031%=      5-min Rain = 0
KVA1 140846Z 19003KT 26/08 A3006 RMK A01 T02620078  RH  031%=      5-min Rain = 0
KVA1 140847Z 20003KT 26/08 A3006 RMK A01 T02630077  RH  031%=      5-min Rain = 0
KVA1 140848Z 20004KT 26/08 A3006 RMK A01 T02640077  RH  031%=      5-min Rain = 0
KVA1 140849Z 21004KT 27/08 A3006 RMK A01 T02650077  RH  030%=      5-min Rain = 0
KVA1 140850Z 21004KT 27/08 A3006 RMK A01 T02660078  RH  030%=      5-min Rain = 0
KVA1 140851Z 21004KT 27/08 A3006 RMK A01 T02660077  RH  030%=      5-min Rain = 0
KVA1 140852Z 21004KT 27/08 A3006 RMK A01 T02660077  RH  030%=      5-min Rain = 0
KVA1 140853Z 21004KT 27/08 A3006 RMK A01 T02650076  RH  030%=      5-min Rain = 0
KVA1 140854Z 22003KT 27/08 A3006 RMK A01 T02650077  RH  030%=      5-min Rain = 0
KVA1 140855Z 22002KT 27/08 A3006 RMK A01 T02650077  RH  030%=      5-min Rain = 0
KVA1 140856Z 21003KT 27/08 A3006 RMK A01 T02650077  RH  030%=      5-min Rain = 0
KVA1 140857Z 21005KT 27/08 A3006 RMK A01 T02650077  RH  030%=      5-min Rain = 0
KVA1 140858Z 22004KT 27/08 A3006 RMK A01 T02650078  RH  030%=      5-min Rain = 0
KVA1 140859Z 22004KT 27/08 A3006 RMK A01 T02650078  RH  030%=      5-min Rain = 0
KVA1 140900Z 23005KT 27/08 A3006 RMK A01 T02660078  RH  030%=      5-min Rain = 0
KVA1 140901Z 25003KT 27/08 A3006 RMK A01 T02660077  RH  030%=      5-min Rain = 0
KVA1 140902Z 24003KT 27/08 A3006 RMK A01 T02650077  RH  030%=      5-min Rain = 0
KVA1 140903Z 26003KT 26/08 A3006 RMK A01 T02640077  RH  031%=      5-min Rain = 0
KVA1 140904Z 28004KT 26/08 A3006 RMK A01 T02620076  RH  031%=      5-min Rain = 0
KVA1 140905Z 28006KT 26/08 A3007 RMK A01 T02600075  RH  031%=      5-min Rain = 0
KVA1 140906Z 28006KT 26/08 A3007 RMK A01 T02580075  RH  031%=      5-min Rain = 0
KVA1 140907Z 27006KT 26/08 A3007 RMK A01 T02560075  RH  032%=      5-min Rain = 0
KVA1 140908Z 27006KT 26/08 A3007 RMK A01 T02560075  RH  032%=      5-min Rain = 0
KVA1 140909Z 27006KT 26/08 A3007 RMK A01 T02550076  RH  032%=      5-min Rain = 0
KVA1 140910Z 27006KT 26/08 A3007 RMK A01 T02550076  RH  032%=      5-min Rain = 0
KVA1 140911Z 27006KT 26/08 A3006 RMK A01 T02550076  RH  032%=      5-min Rain = 0
KVA1 140912Z 26006KT 25/08 A3006 RMK A01 T02540076  RH  032%=      5-min Rain = 0
KVA1 140913Z 26006KT 25/08 A3006 RMK A01 T02540076  RH  032%=      5-min Rain = 0
KVA1 140914Z 25006KT 26/08 A3006 RMK A01 T02550076  RH  032%=      5-min Rain = 0
KVA1 140915Z 25006KT 26/08 A3006 RMK A01 T02550077  RH  032%=      5-min Rain = 0
KVA1 140916Z 25006KT 26/08 A3006 RMK A01 T02560077  RH  032%=      5-min Rain = 0
KVA1 140917Z 25007KT 26/08 A3006 RMK A01 T02560077  RH  032%=      5-min Rain = 0
KVA1 140918Z 24007KT 26/08 A3006 RMK A01 T02560077  RH  032%=      5-min Rain = 0
KVA1 140919Z 24007KT 26/08 A3006 RMK A01 T02560078  RH  032%=      5-min Rain = 0
KVA1 140920Z 24007KT 26/08 A3006 RMK A01 T02560077  RH  032%=      5-min Rain = 0
KVA1 140921Z 23006KT 26/08 A3006 RMK A01 T02560077  RH  032%=      5-min Rain = 0
KVA1 140922Z 23007KT 26/08 A3006 RMK A01 T02570078  RH  032%=      5-min Rain = 0
KVA1 140923Z 23006KT 26/08 A3006 RMK A01 T02560078  RH  032%=      5-min Rain = 0
KVA1 140924Z 23007KT 26/08 A3006 RMK A01 T02570078  RH  032%=      5-min Rain = 0
KVA1 140925Z 24008KT 26/08 A3006 RMK A01 T02560078  RH  032%=      5-min Rain = 0
KVA1 140926Z 24007KT 26/08 A3006 RMK A01 T02560078  RH  032%=      5-min Rain = 0
KVA1 140927Z 23007KT 26/08 A3006 RMK A01 T02560078  RH  032%=      5-min Rain = 0
KVA1 140928Z 24008KT 26/08 A3006 RMK A01 T02560078  RH  032%=      5-min Rain = 0
KVA1 140929Z 23007KT 26/08 A3006 RMK A01 T02570078  RH  032%=      5-min Rain = 0
KVA1 140930Z 24007KT 26/08 A3006 RMK A01 T02570078  RH  032%=      5-min Rain = 0
KVA1 140931Z 24007KT 26/08 A3006 RMK A01 T02560078  RH  032%=      5-min Rain = 0
KVA1 140932Z 24007KT 26/08 A3006 RMK A01 T02560078  RH  032%=      5-min Rain = 0
KVA1 140933Z 24008KT 26/08 A3006 RMK A01 T02550078  RH  032%=      5-min Rain = 0
KVA1 140934Z 24008KT 26/08 A3007 RMK A01 T02550077  RH  032%=      5-min Rain = 0
KVA1 140935Z 24009KT 25/08 A3007 RMK A01 T02540077  RH  032%=      5-min Rain = 0
KVA1 140936Z 24008KT 25/08 A3007 RMK A01 T02540077  RH  032%=      5-min Rain = 0
KVA1 140937Z 25007KT 25/08 A3007 RMK A01 T02540078  RH  032%=      5-min Rain = 0
KVA1 140938Z 25007KT 25/08 A3007 RMK A01 T02540077  RH  032%=      5-min Rain = 0
KVA1 140939Z 24007KT 25/08 A3007 RMK A01 T02540077  RH  033%=      5-min Rain = 0
KVA1 140940Z 24007KT 25/08 A3007 RMK A01 T02540077  RH  033%=      5-min Rain = 0
KVA1 140941Z 24008KT 25/08 A3007 RMK A01 T02540078  RH  033%=      5-min Rain = 0
KVA1 140942Z 23008KT 25/08 A3007 RMK A01 T02540078  RH  033%=      5-min Rain = 0
KVA1 140943Z 23008KT 25/08 A3007 RMK A01 T02540078  RH  032%=      5-min Rain = 0
KVA1 140944Z 23007KT 26/08 A3007 RMK A01 T02550078  RH  032%=      5-min Rain = 0
KVA1 140945Z 23007KT 26/08 A3007 RMK A01 T02550078  RH  032%=      5-min Rain = 0
KVA1 140946Z 23007KT 26/08 A3007 RMK A01 T02550078  RH  032%=      5-min Rain = 0
KVA1 140947Z 23007KT 26/08 A3007 RMK A01 T02550078  RH  032%=      5-min Rain = 0
KVA1 140948Z 23008KT 26/08 A3007 RMK A01 T02550078  RH  032%=      5-min Rain = 0
KVA1 140949Z 23006KT 26/08 A3007 RMK A01 T02550078  RH  032%=      5-min Rain = 0
KVA1 140950Z 23007KT 26/08 A3007 RMK A01 T02550078  RH  032%=      5-min Rain = 0
KVA1 140951Z 24007KT 25/08 A3007 RMK A01 T02540078  RH  033%=      5-min Rain = 0
KVA1 140952Z 23007KT 25/08 A3007 RMK A01 T02540078  RH  033%=      5-min Rain = 0
KVA1 140953Z 23007KT 25/08 A3007 RMK A01 T02540078  RH  033%=      5-min Rain = 0
KVA1 140954Z 23007KT 25/08 A3007 RMK A01 T02540078  RH  033%=      5-min Rain = 0
KVA1 140955Z 23008KT 25/08 A3007 RMK A01 T02540078  RH  033%=      5-min Rain = 0
KVA1 140956Z 22008KT 25/08 A3007 RMK A01 T02540078  RH  033%=      5-min Rain = 0
KVA1 140957Z 22008KT 25/08 A3007 RMK A01 T02540078  RH  033%=      5-min Rain = 0
KVA1 140958Z 22007KT 25/08 A3007 RMK A01 T02540079  RH  033%=      5-min Rain = 0
KVA1 140959Z 22006KT 25/08 A3007 RMK A01 T02540078  RH  033%=      5-min Rain = 0
KVA1 141000Z 23007KT 25/08 A3007 RMK A01 T02530078  RH  033%=      5-min Rain = 0
KVA1 141001Z 23006KT 25/08 A3007 RMK A01 T02530078  RH  033%=      5-min Rain = 0
KVA1 141002Z 23006KT 25/08 A3007 RMK A01 T02520078  RH  033%=      5-min Rain = 0
KVA1 141003Z 23006KT 25/08 A3007 RMK A01 T02520078  RH  033%=      5-min Rain = 0
KVA1 141004Z 24006KT 25/08 A3007 RMK A01 T02510078  RH  033%=      5-min Rain = 0
KVA1 141005Z 24006KT 25/08 A3007 RMK A01 T02510078  RH  033%=      5-min Rain = 0
KVA1 141006Z 24006KT 25/08 A3007 RMK A01 T02500078  RH  033%=      5-min Rain = 0
KVA1 141007Z 25006KT 25/08 A3007 RMK A01 T02490078  RH  033%=      5-min Rain = 0
KVA1 141008Z 25006KT 25/08 A3007 RMK A01 T02490077  RH  034%=      5-min Rain = 0
KVA1 141009Z 25006KT 25/08 A3007 RMK A01 T02480077  RH  034%=      5-min Rain = 0
KVA1 141010Z 25006KT 25/08 A3007 RMK A01 T02470077  RH  034%=      5-min Rain = 0
KVA1 141011Z 25005KT 25/08 A3007 RMK A01 T02460077  RH  034%=      5-min Rain = 0
KVA1 141012Z 25006KT 25/08 A3007 RMK A01 T02450077  RH  034%=      5-min Rain = 0
KVA1 141013Z 25006KT 25/08 A3007 RMK A01 T02450077  RH  034%=      5-min Rain = 0
KVA1 141014Z 26007KT 24/08 A3007 RMK A01 T02440077  RH  034%=      5-min Rain = 0
KVA1 141015Z 26007KT 24/08 A3007 RMK A01 T02440077  RH  034%=      5-min Rain = 0
KVA1 141016Z 25006KT 24/08 A3007 RMK A01 T02430077  RH  035%=      5-min Rain = 0
KVA1 141017Z 24007KT 24/08 A3007 RMK A01 T02420077  RH  035%=      5-min Rain = 0
KVA1 141018Z 24007KT 24/08 A3007 RMK A01 T02420077  RH  035%=      5-min Rain = 0
KVA1 141019Z 24007KT 24/08 A3007 RMK A01 T02420077  RH  035%=      5-min Rain = 0
KVA1 141020Z 24007KT 24/08 A3007 RMK A01 T02420077  RH  035%=      5-min Rain = 0
KVA1 141021Z 24006KT 24/08 A3007 RMK A01 T02420077  RH  035%=      5-min Rain = 0
KVA1 141022Z 24006KT 24/08 A3007 RMK A01 T02420077  RH  035%=      5-min Rain = 0
KVA1 141023Z 24007KT 24/08 A3007 RMK A01 T02420077  RH  035%=      5-min Rain = 0
KVA1 141024Z 24007KT 24/08 A3007 RMK A01 T02420078  RH  035%=      5-min Rain = 0
KVA1 141025Z 24007KT 24/08 A3007 RMK A01 T02420078  RH  035%=      5-min Rain = 0
KVA1 141026Z 24007KT 24/08 A3007 RMK A01 T02420078  RH  035%=      5-min Rain = 0
KVA1 141027Z 24007KT 24/08 A3007 RMK A01 T02420078  RH  035%=      5-min Rain = 0
KVA1 141028Z 24006KT 24/08 A3007 RMK A01 T02410078  RH  035%=      5-min Rain = 0
KVA1 141029Z 24007KT 24/08 A3007 RMK A01 T02410078  RH  035%=      5-min Rain = 0
KVA1 141030Z 25007KT 24/08 A3007 RMK A01 T02410078  RH  035%=      5-min Rain = 0
KVA1 141031Z 25007KT 24/08 A3007 RMK A01 T02410078  RH  035%=      5-min Rain = 0
KVA1 141032Z 24008KT 24/08 A3007 RMK A01 T02400078  RH  035%=      5-min Rain = 0
KVA1 141033Z 24008KT 24/08 A3007 RMK A01 T02410079  RH  035%=      5-min Rain = 0
KVA1 141034Z 24007KT 24/08 A3007 RMK A01 T02410079  RH  035%=      5-min Rain = 0
KVA1 141035Z 25007KT 24/08 A3007 RMK A01 T02410078  RH  035%=      5-min Rain = 0
KVA1 141036Z 24007KT 24/08 A3007 RMK A01 T02410079  RH  035%=      5-min Rain = 0
KVA1 141037Z 25007KT 24/08 A3007 RMK A01 T02420079  RH  035%=      5-min Rain = 0
KVA1 141038Z 25006KT 24/08 A3007 RMK A01 T02420079  RH  035%=      5-min Rain = 0
KVA1 141039Z 24007KT 24/08 A3007 RMK A01 T02420079  RH  035%=      5-min Rain = 0
KVA1 141040Z 24007KT 24/08 A3007 RMK A01 T02420079  RH  035%=      5-min Rain = 0
KVA1 141041Z 24007KT 24/08 A3007 RMK A01 T02420079  RH  035%=      5-min Rain = 0
KVA1 141042Z 24006KT 24/08 A3007 RMK A01 T02420079  RH  035%=      5-min Rain = 0
KVA1 141043Z 23007KT 24/08 A3007 RMK A01 T02420080  RH  035%=      5-min Rain = 0
KVA1 141044Z 23007KT 24/08 A3007 RMK A01 T02420080  RH  035%=      5-min Rain = 0
KVA1 141045Z 23007KT 24/08 A3007 RMK A01 T02430080  RH  035%=      5-min Rain = 0
KVA1 141046Z 23007KT 24/08 A3007 RMK A01 T02430080  RH  035%=      5-min Rain = 0
KVA1 141047Z 23007KT 24/08 A3007 RMK A01 T02440081  RH  035%=      5-min Rain = 0
KVA1 141048Z 23007KT 24/08 A3007 RMK A01 T02440081  RH  035%=      5-min Rain = 0
KVA1 141049Z 23007KT 24/08 A3008 RMK A01 T02440081  RH  035%=      5-min Rain = 0
KVA1 141050Z 23007KT 24/08 A3008 RMK A01 T02440081  RH  035%=      5-min Rain = 0
KVA1 141051Z 23008KT 24/08 A3008 RMK A01 T02440081  RH  035%=      5-min Rain = 0
KVA1 141052Z 23007KT 24/08 A3008 RMK A01 T02440081  RH  035%=      5-min Rain = 0
KVA1 141053Z 23007KT 24/08 A3008 RMK A01 T02430081  RH  036%=      5-min Rain = 0
KVA1 141054Z 23008KT 24/08 A3008 RMK A01 T02430081  RH  036%=      5-min Rain = 0
KVA1 141055Z 22006KT 24/08 A3008 RMK A01 T02430081  RH  036%=      5-min Rain = 0
KVA1 141056Z 22006KT 24/08 A3008 RMK A01 T02420081  RH  036%=      5-min Rain = 0
KVA1 141057Z 22006KT 24/08 A3008 RMK A01 T02430082  RH  036%=      5-min Rain = 0
KVA1 141058Z 22006KT 24/08 A3008 RMK A01 T02420081  RH  036%=      5-min Rain = 0
KVA1 141059Z 22006KT 24/08 A3008 RMK A01 T02410081  RH  036%=      5-min Rain = 0
KVA1 141100Z 22007KT 24/08 A3008 RMK A01 T02410081  RH  036%=      5-min Rain = 0
KVA1 141101Z 22007KT 24/08 A3008 RMK A01 T02400081  RH  036%=      5-min Rain = 0
KVA1 141102Z 22007KT 24/08 A3008 RMK A01 T02400081  RH  036%=      5-min Rain = 0
KVA1 141103Z 22007KT 24/08 A3008 RMK A01 T02390082  RH  036%=      5-min Rain = 0
KVA1 141104Z 22008KT 24/08 A3008 RMK A01 T02390082  RH  037%=      5-min Rain = 0
KVA1 141105Z 22007KT 24/08 A3008 RMK A01 T02390082  RH  037%=      5-min Rain = 0
KVA1 141106Z 22007KT 24/08 A3008 RMK A01 T02390082  RH  037%=      5-min Rain = 0
KVA1 141107Z 22006KT 24/08 A3008 RMK A01 T02390082  RH  037%=      5-min Rain = 0
KVA1 141108Z 22006KT 24/08 A3008 RMK A01 T02390083  RH  037%=      5-min Rain = 0
KVA1 141109Z 22006KT 24/08 A3008 RMK A01 T02380082  RH  037%=      5-min Rain = 0
KVA1 141110Z 22006KT 24/08 A3008 RMK A01 T02380082  RH  037%=      5-min Rain = 0
KVA1 141111Z 23005KT 24/08 A3008 RMK A01 T02380082  RH  037%=      5-min Rain = 0
KVA1 141112Z 23005KT 24/08 A3008 RMK A01 T02370082  RH  037%=      5-min Rain = 0
KVA1 141113Z 23005KT 24/08 A3008 RMK A01 T02370082  RH  037%=      5-min Rain = 0
KVA1 141114Z 24004KT 24/08 A3008 RMK A01 T02360081  RH  037%=      5-min Rain = 0
KVA1 141115Z 24004KT 24/08 A3008 RMK A01 T02350081  RH  037%=      5-min Rain = 0
KVA1 141116Z 25005KT 24/08 A3008 RMK A01 T02350081  RH  037%=      5-min Rain = 0
KVA1 141117Z 25005KT 23/08 A3008 RMK A01 T02340081  RH  038%=      5-min Rain = 0
KVA1 141118Z 25005KT 23/08 A3008 RMK A01 T02330081  RH  038%=      5-min Rain = 0
KVA1 141119Z 25005KT 23/08 A3008 RMK A01 T02320081  RH  038%=      5-min Rain = 0
KVA1 141120Z 25006KT 23/08 A3008 RMK A01 T02320081  RH  038%=      5-min Rain = 0
KVA1 141121Z 25006KT 23/08 A3008 RMK A01 T02310080  RH  038%=      5-min Rain = 0
KVA1 141122Z 25006KT 23/08 A3008 RMK A01 T02310080  RH  038%=      5-min Rain = 0
KVA1 141123Z 25005KT 23/08 A3008 RMK A01 T02300080  RH  038%=      5-min Rain = 0
KVA1 141124Z 25005KT 23/08 A3008 RMK A01 T02300080  RH  038%=      5-min Rain = 0
KVA1 141125Z 25005KT 23/08 A3008 RMK A01 T02290080  RH  038%=      5-min Rain = 0
KVA1 141126Z 25006KT 23/08 A3008 RMK A01 T02280080  RH  039%=      5-min Rain = 0
KVA1 141127Z 24005KT 23/08 A3008 RMK A01 T02280081  RH  039%=      5-min Rain = 0
KVA1 141128Z 24005KT 23/08 A3008 RMK A01 T02270080  RH  039%=      5-min Rain = 0
KVA1 141129Z 24006KT 23/08 A3008 RMK A01 T02270080  RH  039%=      5-min Rain = 0
KVA1 141130Z 24006KT 23/08 A3008 RMK A01 T02260080  RH  039%=      5-min Rain = 0
KVA1 141131Z 24006KT 23/08 A3008 RMK A01 T02260081  RH  039%=      5-min Rain = 0
KVA1 141132Z 24006KT 23/08 A3008 RMK A01 T02260081  RH  039%=      5-min Rain = 0
KVA1 141133Z 23007KT 23/08 A3008 RMK A01 T02260081  RH  039%=      5-min Rain = 0
KVA1 141134Z 23006KT 23/08 A3008 RMK A01 T02270082  RH  039%=      5-min Rain = 0
KVA1 141135Z 23006KT 23/08 A3008 RMK A01 T02280082  RH  039%=      5-min Rain = 0
KVA1 141136Z 23006KT 23/08 A3008 RMK A01 T02300082  RH  039%=      5-min Rain = 0
KVA1 141137Z 23006KT 23/08 A3008 RMK A01 T02300083  RH  039%=      5-min Rain = 0
KVA1 141138Z 22006KT 23/08 A3008 RMK A01 T02310083  RH  039%=      5-min Rain = 0
KVA1 141139Z 22005KT 23/08 A3008 RMK A01 T02320083  RH  039%=      5-min Rain = 0
KVA1 141140Z 23005KT 23/08 A3008 RMK A01 T02320083  RH  038%=      5-min Rain = 0
KVA1 141141Z 23005KT 23/08 A3008 RMK A01 T02320083  RH  038%=      5-min Rain = 0
KVA1 141142Z 23006KT 23/08 A3008 RMK A01 T02320083  RH  038%=      5-min Rain = 0
KVA1 141143Z 24005KT 23/08 A3008 RMK A01 T02310083  RH  039%=      5-min Rain = 0
KVA1 141144Z 24005KT 23/08 A3008 RMK A01 T02310082  RH  039%=      5-min Rain = 0
KVA1 141145Z 24005KT 23/08 A3008 RMK A01 T02310083  RH  039%=      5-min Rain = 0
KVA1 141146Z 24005KT 23/08 A3008 RMK A01 T02300082  RH  039%=      5-min Rain = 0
KVA1 141147Z 25005KT 23/08 A3008 RMK A01 T02300082  RH  039%=      5-min Rain = 0
KVA1 141148Z 25006KT 23/08 A3008 RMK A01 T02290083  RH  039%=      5-min Rain = 0
KVA1 141149Z 25005KT 23/08 A3008 RMK A01 T02290083  RH  039%=      5-min Rain = 0
KVA1 141150Z 25006KT 23/08 A3008 RMK A01 T02280082  RH  039%=      5-min Rain = 0
KVA1 141151Z 26006KT 23/08 A3008 RMK A01 T02270082  RH  039%=      5-min Rain = 0
KVA1 141152Z 25006KT 23/08 A3009 RMK A01 T02260081  RH  039%=      5-min Rain = 0
KVA1 141153Z 25006KT 23/08 A3009 RMK A01 T02250081  RH  040%=      5-min Rain = 0
KVA1 141154Z 25006KT 22/08 A3009 RMK A01 T02240081  RH  040%=      5-min Rain = 0
KVA1 141155Z 24006KT 22/08 A3009 RMK A01 T02230081  RH  040%=      5-min Rain = 0
KVA1 141156Z 24006KT 22/08 A3009 RMK A01 T02230082  RH  040%=      5-min Rain = 0
KVA1 141157Z 24006KT 22/08 A3009 RMK A01 T02230082  RH  040%=      5-min Rain = 0
KVA1 141158Z 23007KT 22/08 A3009 RMK A01 T02240082  RH  040%=      5-min Rain = 0
KVA1 141159Z 23006KT 23/08 A3009 RMK A01 T02250083  RH  040%=      5-min Rain = 0
KVA1 141200Z 22006KT 23/08 A3009 RMK A01 T02260083  RH  040%=      5-min Rain = 0
KVA1 141201Z 22006KT 23/08 A3009 RMK A01 T02260083  RH  040%=      5-min Rain = 0
KVA1 141202Z 22006KT 23/08 A3009 RMK A01 T02270083  RH  040%=      5-min Rain = 0
KVA1 141203Z 21006KT 23/08 A3009 RMK A01 T02270083  RH  040%=      5-min Rain = 0
KVA1 141204Z 22006KT 23/08 A3009 RMK A01 T02270083  RH  040%=      5-min Rain = 0
KVA1 141205Z 22006KT 23/08 A3009 RMK A01 T02270084  RH  040%=      5-min Rain = 0
KVA1 141206Z 22007KT 23/08 A3009 RMK A01 T02270084  RH  040%=      5-min Rain = 0
KVA1 141207Z 22007KT 23/08 A3009 RMK A01 T02280084  RH  040%=      5-min Rain = 0
KVA1 141208Z 22007KT 23/08 A3009 RMK A01 T02280084  RH  040%=      5-min Rain = 0
KVA1 141209Z 22006KT 23/09 A3009 RMK A01 T02280085  RH  040%=      5-min Rain = 0
KVA1 141210Z 21006KT 23/09 A3009 RMK A01 T02280085  RH  040%=      5-min Rain = 0
KVA1 141211Z 21006KT 23/09 A3009 RMK A01 T02280085  RH  040%=      5-min Rain = 0
KVA1 141212Z 21006KT 23/09 A3009 RMK A01 T02280085  RH  040%=      5-min Rain = 0
KVA1 141213Z 21006KT 23/09 A3009 RMK A01 T02280085  RH  040%=      5-min Rain = 0
KVA1 141214Z 22007KT 23/09 A3009 RMK A01 T02280085  RH  040%=      5-min Rain = 0
KVA1 141215Z 21006KT 23/09 A3009 RMK A01 T02280086  RH  040%=      5-min Rain = 0
KVA1 141216Z 21006KT 23/09 A3009 RMK A01 T02280086  RH  040%=      5-min Rain = 0
KVA1 141217Z 21006KT 23/09 A3009 RMK A01 T02280086  RH  040%=      5-min Rain = 0
KVA1 141218Z 21007KT 23/09 A3009 RMK A01 T02280086  RH  040%=      5-min Rain = 0
KVA1 141219Z 21006KT 23/09 A3009 RMK A01 T02280086  RH  040%=      5-min Rain = 0
KVA1 141220Z 21006KT 23/09 A3009 RMK A01 T02280086  RH  040%=      5-min Rain = 0
KVA1 141221Z 21006KT 23/09 A3009 RMK A01 T02280086  RH  040%=      5-min Rain = 0
KVA1 141222Z 21006KT 23/09 A3009 RMK A01 T02280086  RH  040%=      5-min Rain = 0
KVA1 141223Z 21006KT 23/09 A3009 RMK A01 T02280086  RH  040%=      5-min Rain = 0
KVA1 141224Z 22006KT 23/09 A3009 RMK A01 T02280086  RH  040%=      5-min Rain = 0
KVA1 141225Z 22006KT 23/09 A3009 RMK A01 T02270086  RH  040%=      5-min Rain = 0
KVA1 141226Z 22006KT 23/09 A3009 RMK A01 T02270086  RH  040%=      5-min Rain = 0
KVA1 141227Z 22006KT 23/09 A3009 RMK A01 T02260086  RH  041%=      5-min Rain = 0
KVA1 141228Z 22005KT 23/09 A3009 RMK A01 T02260086  RH  041%=      5-min Rain = 0
KVA1 141229Z 22006KT 23/09 A3009 RMK A01 T02260086  RH  041%=      5-min Rain = 0
KVA1 141230Z 22006KT 23/09 A3009 RMK A01 T02250086  RH  041%=      5-min Rain = 0
KVA1 141231Z 22006KT 23/09 A3009 RMK A01 T02250086  RH  041%=      5-min Rain = 0
KVA1 141232Z 22006KT 23/09 A3009 RMK A01 T02250086  RH  041%=      5-min Rain = 0
KVA1 141233Z 22006KT 22/09 A3009 RMK A01 T02240086  RH  041%=      5-min Rain = 0
KVA1 141234Z 22005KT 22/09 A301 RMK A01 T02240086  RH  041%=      5-min Rain = 0
KVA1 141235Z 22004KT 22/09 A301 RMK A01 T02240086  RH  041%=      5-min Rain = 0
KVA1 141236Z 23004KT 22/09 A301 RMK A01 T02240086  RH  041%=      5-min Rain = 0
KVA1 141237Z 23003KT 22/09 A301 RMK A01 T02230086  RH  041%=      5-min Rain = 0
KVA1 141238Z 23003KT 22/09 A301 RMK A01 T02230086  RH  042%=      5-min Rain = 0
KVA1 141239Z 24003KT 22/09 A301 RMK A01 T02220086  RH  042%=      5-min Rain = 0
KVA1 141240Z 24003KT 22/09 A301 RMK A01 T02220086  RH  042%=      5-min Rain = 0
KVA1 141241Z 25003KT 22/09 A301 RMK A01 T02210086  RH  042%=      5-min Rain = 0
KVA1 141242Z 26003KT 22/09 A301 RMK A01 T02210086  RH  042%=      5-min Rain = 0
KVA1 141243Z 26003KT 22/09 A301 RMK A01 T02200086  RH  042%=      5-min Rain = 0
KVA1 141244Z 27003KT 22/09 A301 RMK A01 T02190086  RH  042%=      5-min Rain = 0
KVA1 141245Z 27004KT 22/09 A301 RMK A01 T02190085  RH  042%=      5-min Rain = 0
KVA1 141246Z 26004KT 22/09 A301 RMK A01 T02190085  RH  042%=      5-min Rain = 0
KVA1 141247Z 26004KT 22/09 A301 RMK A01 T02190086  RH  043%=      5-min Rain = 0
KVA1 141248Z 26005KT 22/09 A301 RMK A01 T02180086  RH  043%=      5-min Rain = 0
KVA1 141249Z 25004KT 22/09 A301 RMK A01 T02190086  RH  043%=      5-min Rain = 0
KVA1 141250Z 26005KT 22/09 A301 RMK A01 T02200087  RH  042%=      5-min Rain = 0
KVA1 141251Z 26005KT 22/09 A301 RMK A01 T02210087  RH  042%=      5-min Rain = 0
KVA1 141252Z 25005KT 22/09 A301 RMK A01 T02210087  RH  042%=      5-min Rain = 0
KVA1 141253Z 25006KT 22/09 A301 RMK A01 T02220087  RH  042%=      5-min Rain = 0
KVA1 141254Z 25007KT 22/09 A301 RMK A01 T02230088  RH  042%=      5-min Rain = 0
KVA1 141255Z 24006KT 23/09 A301 RMK A01 T02250088  RH  042%=      5-min Rain = 0
KVA1 141256Z 24007KT 23/09 A301 RMK A01 T02270089  RH  041%=      5-min Rain = 0
KVA1 141257Z 24006KT 23/09 A301 RMK A01 T02290089  RH  041%=      5-min Rain = 0
KVA1 141258Z 24006KT 23/09 A301 RMK A01 T02300089  RH  040%=      5-min Rain = 0
KVA1 141259Z 24006KT 23/09 A301 RMK A01 T02320090  RH  040%=      5-min Rain = 0
KVA1 141300Z 24006KT 23/09 A301 RMK A01 T02330089  RH  040%=      5-min Rain = 0
KVA1 141301Z 24005KT 23/09 A301 RMK A01 T02340090  RH  040%=      5-min Rain = 0
KVA1 141302Z 24006KT 24/09 A301 RMK A01 T02350090  RH  040%=      5-min Rain = 0
KVA1 141303Z 24007KT 24/09 A301 RMK A01 T02350090  RH  039%=      5-min Rain = 0
KVA1 141304Z 24006KT 24/09 A301 RMK A01 T02360090  RH  039%=      5-min Rain = 0
KVA1 141305Z 25006KT 24/09 A301 RMK A01 T02370090  RH  039%=      5-min Rain = 0
KVA1 141306Z 25006KT 24/09 A3011 RMK A01 T02380090  RH  039%=      5-min Rain = 0
KVA1 141307Z 25006KT 24/09 A3011 RMK A01 T02370089  RH  039%=      5-min Rain = 0
KVA1 141308Z 24006KT 24/09 A3011 RMK A01 T02380089  RH  039%=      5-min Rain = 0
KVA1 141309Z 25005KT 24/09 A3011 RMK A01 T02380090  RH  039%=      5-min Rain = 0
KVA1 141310Z 25006KT 24/09 A3011 RMK A01 T02380089  RH  039%=      5-min Rain = 0
KVA1 141311Z 24006KT 24/09 A3011 RMK A01 T02390090  RH  039%=      5-min Rain = 0
KVA1 141312Z 23006KT 24/09 A3011 RMK A01 T02390090  RH  039%=      5-min Rain = 0
KVA1 141313Z 24006KT 24/09 A3011 RMK A01 T02400090  RH  039%=      5-min Rain = 0
KVA1 141314Z 24005KT 24/09 A3011 RMK A01 T02400090  RH  038%=      5-min Rain = 0
KVA1 141315Z 24005KT 24/09 A3011 RMK A01 T02400090  RH  038%=      5-min Rain = 0
KVA1 141316Z 25007KT 24/09 A3011 RMK A01 T02410091  RH  038%=      5-min Rain = 0
KVA1 141317Z 25007KT 24/09 A3011 RMK A01 T02420091  RH  038%=      5-min Rain = 0
KVA1 141318Z 25006KT 24/09 A3011 RMK A01 T02430091  RH  038%=      5-min Rain = 0
KVA1 141319Z 24006KT 24/09 A3011 RMK A01 T02430091  RH  038%=      5-min Rain = 0
KVA1 141320Z 23006KT 24/09 A3011 RMK A01 T02440091  RH  038%=      5-min Rain = 0
KVA1 141321Z 23006KT 24/09 A3011 RMK A01 T02440092  RH  038%=      5-min Rain = 0
KVA1 141322Z 23006KT 25/09 A3011 RMK A01 T02450092  RH  038%=      5-min Rain = 0
KVA1 141323Z 24006KT 25/09 A3011 RMK A01 T02460092  RH  038%=      5-min Rain = 0
KVA1 141324Z 23006KT 25/09 A3011 RMK A01 T02460092  RH  038%=      5-min Rain = 0
KVA1 141325Z 24006KT 25/09 A3011 RMK A01 T02480093  RH  037%=      5-min Rain = 0
KVA1 141326Z 23005KT 25/09 A3011 RMK A01 T02480092  RH  037%=      5-min Rain = 0
KVA1 141327Z 23005KT 25/09 A3011 RMK A01 T02480092  RH  037%=      5-min Rain = 0
KVA1 141328Z 23005KT 25/09 A3011 RMK A01 T02490093  RH  037%=      5-min Rain = 0
KVA1 141329Z 24005KT 25/09 A3012 RMK A01 T02490093  RH  037%=      5-min Rain = 0
KVA1 141330Z 24005KT 25/09 A3012 RMK A01 T02500093  RH  037%=      5-min Rain = 0
KVA1 141331Z 24006KT 25/09 A3012 RMK A01 T02510093  RH  037%=      5-min Rain = 0
KVA1 141332Z 23005KT 25/09 A3012 RMK A01 T02520093  RH  037%=      5-min Rain = 0
KVA1 141333Z 23005KT 25/09 A3012 RMK A01 T02520093  RH  037%=      5-min Rain = 0
KVA1 141334Z 22004KT 25/09 A3012 RMK A01 T02520094  RH  037%=      5-min Rain = 0
KVA1 141335Z 23004KT 25/09 A3012 RMK A01 T02530094  RH  037%=      5-min Rain = 0
KVA1 141336Z 22004KT 25/09 A3012 RMK A01 T02530094  RH  036%=      5-min Rain = 0
KVA1 141337Z 22004KT 25/09 A3012 RMK A01 T02540094  RH  036%=      5-min Rain = 0
KVA1 141338Z 22004KT 25/09 A3012 RMK A01 T02540094  RH  036%=      5-min Rain = 0
KVA1 141339Z 22004KT 26/10 A3012 RMK A01 T02550095  RH  036%=      5-min Rain = 0
KVA1 141340Z 22005KT 26/10 A3012 RMK A01 T02560095  RH  036%=      5-min Rain = 0
KVA1 141341Z 22005KT 26/09 A3012 RMK A01 T02560094  RH  036%=      5-min Rain = 0
KVA1 141342Z 21005KT 26/09 A3012 RMK A01 T02560094  RH  036%=      5-min Rain = 0
KVA1 141343Z 21006KT 26/09 A3012 RMK A01 T02550094  RH  036%=      5-min Rain = 0
KVA1 141344Z 22007KT 26/09 A3012 RMK A01 T02550094  RH  036%=      5-min Rain = 0
KVA1 141345Z 21006KT 26/09 A3012 RMK A01 T02550094  RH  036%=      5-min Rain = 0
KVA1 141346Z 21006KT 26/10 A3012 RMK A01 T02550095  RH  036%=      5-min Rain = 0
KVA1 141347Z 21005KT 26/10 A3012 RMK A01 T02550095  RH  036%=      5-min Rain = 0
KVA1 141348Z 22006KT 26/10 A3012 RMK A01 T02560095  RH  036%=      5-min Rain = 0
KVA1 141349Z 20005KT 26/10 A3012 RMK A01 T02560095  RH  036%=      5-min Rain = 0
KVA1 141350Z 21005KT 26/10 A3012 RMK A01 T02560096  RH  036%=      5-min Rain = 0
KVA1 141351Z 21006KT 26/10 A3012 RMK A01 T02570096  RH  036%=      5-min Rain = 0
KVA1 141352Z 21006KT 26/10 A3012 RMK A01 T02580096  RH  036%=      5-min Rain = 0
KVA1 141353Z 21006KT 26/10 A3012 RMK A01 T02590097  RH  036%=      5-min Rain = 0
KVA1 141354Z 21006KT 26/10 A3012 RMK A01 T02600097  RH  036%=      5-min Rain = 0
KVA1 141355Z 19006KT 26/10 A3012 RMK A01 T02600098  RH  036%=      5-min Rain = 0
KVA1 141356Z 20005KT 26/10 A3012 RMK A01 T02620099  RH  036%=      5-min Rain = 0
KVA1 141357Z 20007KT 26/10 A3012 RMK A01 T02630099  RH  036%=      5-min Rain = 0
KVA1 141358Z 20007KT 26/10 A3012 RMK A01 T02630098  RH  035%=      5-min Rain = 0
KVA1 141359Z 20007KT 26/10 A3012 RMK A01 T02630098  RH  035%=      5-min Rain = 0
KVA1 141400Z 20006KT 26/10 A3012 RMK A01 T02630098  RH  036%=      5-min Rain = 0
KVA1 141401Z 22005KT 26/10 A3012 RMK A01 T02630099  RH  035%=      5-min Rain = 0
KVA1 141402Z 21006KT 27/10 A3012 RMK A01 T02650099  RH  035%=      5-min Rain = 0
KVA1 141403Z 21005KT 27/10 A3012 RMK A01 T02660099  RH  035%=      5-min Rain = 0
KVA1 141404Z 19005KT 27/10 A3012 RMK A01 T02660099  RH  035%=      5-min Rain = 0
KVA1 141405Z 20006KT 27/10 A3012 RMK A01 T02660099  RH  035%=      5-min Rain = 0
KVA1 141406Z 20006KT 27/10 A3012 RMK A01 T02670099  RH  035%=      5-min Rain = 0
KVA1 141407Z 21005KT 27/10 A3012 RMK A01 T02680099  RH  035%=      5-min Rain = 0
KVA1 141408Z 22006KT 27/10 A3012 RMK A01 T02680100  RH  035%=      5-min Rain = 0
KVA1 141409Z 22006KT 27/10 A3012 RMK A01 T02690099  RH  034%=      5-min Rain = 0
KVA1 141410Z 21004KT 27/10 A3012 RMK A01 T02690099  RH  034%=      5-min Rain = 0
KVA1 141411Z 21005KT 27/10 A3013 RMK A01 T02710101  RH  034%=      5-min Rain = 0
KVA1 141412Z 21007KT 27/10 A3013 RMK A01 T02720100  RH  034%=      5-min Rain = 0
KVA1 141413Z 21007KT 27/10 A3013 RMK A01 T02720100  RH  034%=      5-min Rain = 0
KVA1 141414Z 20007KT 27/10 A3013 RMK A01 T02710100  RH  034%=      5-min Rain = 0
KVA1 141415Z 20008KT 27/10 A3013 RMK A01 T02710100  RH  034%=      5-min Rain = 0
KVA1 141416Z 20007KT 27/10 A3013 RMK A01 T02710100  RH  034%=      5-min Rain = 0
KVA1 141417Z 21006KT 27/10 A3013 RMK A01 T02720100  RH  034%=      5-min Rain = 0
KVA1 141418Z 20008KT 27/10 A3013 RMK A01 T02730101  RH  034%=      5-min Rain = 0
KVA1 141419Z 20007KT 27/10 A3013 RMK A01 T02740101  RH  034%=      5-min Rain = 0
KVA1 141420Z 20006KT 27/10 A3013 RMK A01 T02740100  RH  034%=      5-min Rain = 0
KVA1 141421Z 22006KT 27/10 A3013 RMK A01 T02740100  RH  034%=      5-min Rain = 0
KVA1 141422Z 19005KT 28/10 A3013 RMK A01 T02750101  RH  034%=      5-min Rain = 0
KVA1 141423Z 22005KT 28/10 A3013 RMK A01 T02760101  RH  034%=      5-min Rain = 0
KVA1 141424Z 22005KT 28/10 A3013 RMK A01 T02760101  RH  033%=      5-min Rain = 0
KVA1 141425Z 20005KT 28/10 A3013 RMK A01 T02770102  RH  033%=      5-min Rain = 0
KVA1 141426Z 20006KT 28/10 A3013 RMK A01 T02780102  RH  033%=      5-min Rain = 0
KVA1 141427Z 22005KT 28/10 A3013 RMK A01 T02790102  RH  033%=      5-min Rain = 0
KVA1 141428Z 21006KT 28/10 A3013 RMK A01 T02790102  RH  033%=      5-min Rain = 0
KVA1 141429Z 20006KT 28/10 A3013 RMK A01 T02800103  RH  033%=      5-min Rain = 0
KVA1 141430Z 21009KT 28/10 A3013 RMK A01 T02810103  RH  033%=      5-min Rain = 0
KVA1 141431Z 20007KT 28/10 A3013 RMK A01 T02820103  RH  033%=      5-min Rain = 0
KVA1 141432Z 21006KT 28/10 A3013 RMK A01 T02820102  RH  032%=      5-min Rain = 0
KVA1 141433Z 20008KT 28/10 A3013 RMK A01 T02830103  RH  033%=      5-min Rain = 0
KVA1 141434Z 21006KT 28/10 A3013 RMK A01 T02830102  RH  032%=      5-min Rain = 0
KVA1 141435Z 22007KT 28/10 A3013 RMK A01 T02840103  RH  032%=      5-min Rain = 0
KVA1 141436Z 21008KT 29/10 A3013 RMK A01 T02850102  RH  032%=      5-min Rain = 0
KVA1 141437Z 21008KT 29/10 A3013 RMK A01 T02850102  RH  032%=      5-min Rain = 0
KVA1 141438Z 21009KT 28/10 A3013 RMK A01 T02830102  RH  032%=      5-min Rain = 0
KVA1 141439Z 21008KT 28/10 A3013 RMK A01 T02830103  RH  032%=      5-min Rain = 0
KVA1 141440Z 20005KT 28/10 A3013 RMK A01 T02830103  RH  032%=      5-min Rain = 0
KVA1 141441Z 21006KT 28/10 A3012 RMK A01 T02840103  RH  032%=      5-min Rain = 0
KVA1 141442Z 21007KT 29/10 A3012 RMK A01 T02850103  RH  032%=      5-min Rain = 0
KVA1 141443Z 20008KT 29/10 A3012 RMK A01 T02850102  RH  032%=      5-min Rain = 0
KVA1 141444Z 21007KT 28/10 A3012 RMK A01 T02830101  RH  032%=      5-min Rain = 0
KVA1 141445Z 20007KT 28/10 A3012 RMK A01 T02820102  RH  033%=      5-min Rain = 0
KVA1 141446Z 19006KT 28/10 A3012 RMK A01 T02840103  RH  032%=      5-min Rain = 0
KVA1 141447Z 21006KT 29/10 A3012 RMK A01 T02860104  RH  032%=      5-min Rain = 0
KVA1 141448Z 21008KT 29/10 A3012 RMK A01 T02870103  RH  032%=      5-min Rain = 0
KVA1 141449Z 21009KT 29/10 A3012 RMK A01 T02870102  RH  032%=      5-min Rain = 0
KVA1 141450Z 20008KT 29/10 A3013 RMK A01 T02860102  RH  032%=      5-min Rain = 0
KVA1 141451Z 21007KT 29/10 A3013 RMK A01 T02860102  RH  032%=      5-min Rain = 0
KVA1 141452Z 20006KT 29/10 A3013 RMK A01 T02850103  RH  032%=      5-min Rain = 0
KVA1 141453Z 21006KT 29/11 A3013 RMK A01 T02870105  RH  032%=      5-min Rain = 0
KVA1 141454Z 21008KT 29/10 A3013 RMK A01 T02880104  RH  032%=      5-min Rain = 0
KVA1 141455Z 21007KT 29/10 A3013 RMK A01 T02890103  RH  032%=      5-min Rain = 0
KVA1 141456Z 21008KT 29/10 A3013 RMK A01 T02890104  RH  032%=      5-min Rain = 0
KVA1 141457Z 21008KT 29/10 A3013 RMK A01 T02890103  RH  031%=      5-min Rain = 0
KVA1 141458Z 21008KT 29/10 A3013 RMK A01 T02890104  RH  032%=      5-min Rain = 0
KVA1 141459Z 20008KT 29/10 A3013 RMK A01 T02890103  RH  031%=      5-min Rain = 0
KVA1 141500Z 20008KT 29/10 A3013 RMK A01 T02890103  RH  031%=      5-min Rain = 0
KVA1 141501Z 21008KT 29/10 A3013 RMK A01 T02900103  RH  031%=      5-min Rain = 0
KVA1 141502Z 20007KT 29/10 A3013 RMK A01 T02900103  RH  031%=      5-min Rain = 0
KVA1 141503Z 20009KT 29/10 A3013 RMK A01 T02910104  RH  031%=      5-min Rain = 0
KVA1 141504Z 19007KT 29/10 A3013 RMK A01 T02920104  RH  031%=      5-min Rain = 0
KVA1 141505Z 20010KT 29/10 A3013 RMK A01 T02930103  RH  031%=      5-min Rain = 0
KVA1 141506Z 19009KT 29/10 A3013 RMK A01 T02930103  RH  031%=      5-min Rain = 0
KVA1 141507Z 19009KT 29/10 A3013 RMK A01 T02930104  RH  031%=      5-min Rain = 0
KVA1 141508Z 19009KT 29/10 A3013 RMK A01 T02920103  RH  031%=      5-min Rain = 0
KVA1 141509Z 19009KT 29/10 A3013 RMK A01 T02920103  RH  031%=      5-min Rain = 0
KVA1 141510Z 19009KT 29/10 A3013 RMK A01 T02930103  RH  031%=      5-min Rain = 0
KVA1 141511Z 19010KT 29/10 A3013 RMK A01 T02940104  RH  031%=      5-min Rain = 0
KVA1 141512Z 19008KT 29/10 A3013 RMK A01 T02930102  RH  031%=      5-min Rain = 0
KVA1 141513Z 20008KT 29/10 A3013 RMK A01 T02930103  RH  031%=      5-min Rain = 0
KVA1 141514Z 20008KT 29/10 A3013 RMK A01 T02940103  RH  031%=      5-min Rain = 0
KVA1 141515Z 20007KT 29/10 A3013 RMK A01 T02940104  RH  031%=      5-min Rain = 0
KVA1 141516Z 20007KT 30/11 A3013 RMK A01 T02950105  RH  031%=      5-min Rain = 0
KVA1 141517Z 21007KT 30/10 A3013 RMK A01 T02960104  RH  030%=      5-min Rain = 0
KVA1 141518Z 20008KT 30/10 A3013 RMK A01 T02970103  RH  030%=      5-min Rain = 0
KVA1 141519Z 20004KT 30/11 A3013 RMK A01 T02970105  RH  031%=      5-min Rain = 0
KVA1 141520Z 18008KT 30/10 A3013 RMK A01 T02980104  RH  030%=      5-min Rain = 0
KVA1 141521Z 19009KT 30/10 A3013 RMK A01 T02990103  RH  030%=      5-min Rain = 0
KVA1 141522Z 19009KT 30/10 A3013 RMK A01 T02990103  RH  030%=      5-min Rain = 0
KVA1 141523Z 20008KT 30/10 A3013 RMK A01 T02990103  RH  030%=      5-min Rain = 0
KVA1 141524Z 20009KT 30/10 A3013 RMK A01 T02990103  RH  030%=      5-min Rain = 0
KVA1 141525Z 20007KT 30/10 A3013 RMK A01 T03000104  RH  030%=      5-min Rain = 0
KVA1 141526Z 19007KT 30/10 A3013 RMK A01 T03010104  RH  030%=      5-min Rain = 0
KVA1 141527Z 20009KT 30/11 A3013 RMK A01 T03020105  RH  030%=      5-min Rain = 0
KVA1 141528Z 20005KT 30/11 A3013 RMK A01 T03010105  RH  030%=      5-min Rain = 0
KVA1 141529Z 19006KT 30/11 A3013 RMK A01 T03010105  RH  030%=      5-min Rain = 0
KVA1 141530Z 19006KT 30/11 A3013 RMK A01 T03020106  RH  030%=      5-min Rain = 0
KVA1 141531Z 19007KT 31/11 A3013 RMK A01 T03050106  RH  029%=      5-min Rain = 0
KVA1 141532Z 19007KT 31/11 A3013 RMK A01 T03060105  RH  029%=      5-min Rain = 0
KVA1 141533Z 21008KT 31/11 A3013 RMK A01 T03070105  RH  029%=      5-min Rain = 0
KVA1 141534Z 21007KT 31/11 A3013 RMK A01 T03060105  RH  029%=      5-min Rain = 0
KVA1 141535Z 20007KT 31/11 A3013 RMK A01 T03060105  RH  029%=      5-min Rain = 0
KVA1 141536Z 20006KT 31/10 A3013 RMK A01 T03060104  RH  029%=      5-min Rain = 0
KVA1 141537Z 19007KT 31/10 A3013 RMK A01 T03070104  RH  029%=      5-min Rain = 0
KVA1 141538Z 19008KT 31/10 A3013 RMK A01 T03060102  RH  028%=      5-min Rain = 0
KVA1 141539Z 20007KT 31/10 A3013 RMK A01 T03050103  RH  029%=      5-min Rain = 0
KVA1 141540Z 20006KT 31/10 A3013 RMK A01 T03060104  RH  029%=      5-min Rain = 0
KVA1 141541Z 18005KT 31/11 A3013 RMK A01 T03060105  RH  029%=      5-min Rain = 0
KVA1 141542Z 18006KT 31/11 A3012 RMK A01 T03070107  RH  029%=      5-min Rain = 0
KVA1 141543Z 18007KT 31/11 A3012 RMK A01 T03100107  RH  029%=      5-min Rain = 0
KVA1 141544Z 18006KT 31/11 A3012 RMK A01 T03130106  RH  028%=      5-min Rain = 0
KVA1 141545Z 20006KT 32/11 A3012 RMK A01 T03150105  RH  028%=      5-min Rain = 0
KVA1 141546Z 20007KT 32/11 A3012 RMK A01 T03150105  RH  027%=      5-min Rain = 0
KVA1 141547Z 20008KT 32/10 A3012 RMK A01 T03150104  RH  027%=      5-min Rain = 0
KVA1 141548Z 20007KT 31/10 A3012 RMK A01 T03140103  RH  027%=      5-min Rain = 0
KVA1 141549Z 19005KT 31/10 A3012 RMK A01 T03140104  RH  027%=      5-min Rain = 0
KVA1 141550Z 19004KT 32/10 A3012 RMK A01 T03160103  RH  027%=      5-min Rain = 0
KVA1 141551Z 20005KT 32/10 A3012 RMK A01 T03160103  RH  027%=      5-min Rain = 0
KVA1 141552Z 21008KT 32/10 A3012 RMK A01 T03180103  RH  027%=      5-min Rain = 0
KVA1 141553Z 21005KT 32/10 A3012 RMK A01 T03180100  RH  026%=      5-min Rain = 0
KVA1 141554Z 20003KT 32/10 A3012 RMK A01 T03180100  RH  026%=      5-min Rain = 0
KVA1 141555Z 19006KT 32/10 A3012 RMK A01 T03180101  RH  026%=      5-min Rain = 0
KVA1 141556Z 21006KT 32/10 A3012 RMK A01 T03200103  RH  026%=      5-min Rain = 0
KVA1 141557Z 21007KT 32/10 A3012 RMK A01 T03230097  RH  025%=      5-min Rain = 0
KVA1 141558Z 21006KT 32/10 A3012 RMK A01 T03230100  RH  025%=      5-min Rain = 0
KVA1 141559Z 20006KT 32/10 A3012 RMK A01 T03210102  RH  026%=      5-min Rain = 0
KVA1 141600Z 20007KT 32/10 A3012 RMK A01 T03210103  RH  026%=      5-min Rain = 0
KVA1 141601Z 20007KT 32/10 A3012 RMK A01 T03240102  RH  026%=      5-min Rain = 0
KVA1 141602Z 20007KT 33/10 A3012 RMK A01 T03250101  RH  025%=      5-min Rain = 0
KVA1 141603Z 19005KT 32/10 A3012 RMK A01 T03240101  RH  025%=      5-min Rain = 0
KVA1 141604Z 19007KT 32/10 A3012 RMK A01 T03230103  RH  026%=      5-min Rain = 0
KVA1 141605Z 21005KT 32/10 A3013 RMK A01 T03210102  RH  026%=      5-min Rain = 0
KVA1 141606Z 23003KT 32/10 A3012 RMK A01 T03180100  RH  026%=      5-min Rain = 0
KVA1 141607Z 19007KT 32/10 A3012 RMK A01 T03190103  RH  027%=      5-min Rain = 0
KVA1 141608Z 19008KT 32/10 A3012 RMK A01 T03210101  RH  026%=      5-min Rain = 0
KVA1 141609Z 19007KT 32/10 A3012 RMK A01 T03220103  RH  026%=      5-min Rain = 0
KVA1 141610Z 19005KT 32/10 A3012 RMK A01 T03220103  RH  026%=      5-min Rain = 0
KVA1 141611Z 20006KT 32/10 A3012 RMK A01 T03210104  RH  026%=      5-min Rain = 0
KVA1 141612Z 19005KT 32/10 A3012 RMK A01 T03210103  RH  026%=      5-min Rain = 0
KVA1 141613Z 18006KT 32/10 A3012 RMK A01 T03220104  RH  026%=      5-min Rain = 0
KVA1 141614Z 19006KT 33/11 A3012 RMK A01 T03250105  RH  026%=      5-min Rain = 0
KVA1 141615Z 18005KT 33/11 A3012 RMK A01 T03270105  RH  026%=      5-min Rain = 0
KVA1 141616Z 19004KT 33/10 A3012 RMK A01 T03270104  RH  025%=      5-min Rain = 0
KVA1 141617Z 21006KT 33/10 A3012 RMK A01 T03280103  RH  025%=      5-min Rain = 0
KVA1 141618Z 20004KT 33/10 A3012 RMK A01 T03290102  RH  025%=      5-min Rain = 0
KVA1 141619Z 21003KT 33/10 A3012 RMK A01 T03280102  RH  025%=      5-min Rain = 0
KVA1 141620Z 17003KT 33/10 A3012 RMK A01 T03280101  RH  025%=      5-min Rain = 0
KVA1 141621Z 20006KT 33/10 A3012 RMK A01 T03290102  RH  025%=      5-min Rain = 0
KVA1 141622Z 18007KT 33/10 A3012 RMK A01 T03300103  RH  025%=      5-min Rain = 0
KVA1 141623Z 16004KT 33/10 A3012 RMK A01 T03290102  RH  025%=      5-min Rain = 0
KVA1 141624Z 16004KT 33/10 A3012 RMK A01 T03300103  RH  025%=      5-min Rain = 0
KVA1 141625Z 16004KT 33/10 A3012 RMK A01 T03330103  RH  024%=      5-min Rain = 0
KVA1 141626Z 20004KT 34/10 A3012 RMK A01 T03350103  RH  024%=      5-min Rain = 0
KVA1 141627Z 20006KT 34/10 A3012 RMK A01 T03360101  RH  024%=      5-min Rain = 0
KVA1 141628Z 19008KT 34/10 A3012 RMK A01 T03360100  RH  024%=      5-min Rain = 0
KVA1 141629Z 19006KT 34/10 A3012 RMK A01 T03360099  RH  023%=      5-min Rain = 0
KVA1 141630Z 20005KT 34/10 A3012 RMK A01 T03350098  RH  023%=      5-min Rain = 0
KVA1 141631Z 20004KT 34/10 A3012 RMK A01 T03350095  RH  023%=      5-min Rain = 0
KVA1 141632Z 18001KT 33/10 A3012 RMK A01 T03330095  RH  023%=      5-min Rain = 0
KVA1 141633Z 15004KT 33/10 A3012 RMK A01 T03340097  RH  023%=      5-min Rain = 0
KVA1 141634Z 19003KT 34/10 A3012 RMK A01 T03370100  RH  023%=      5-min Rain = 0
KVA1 141635Z 20004KT 34/10 A3012 RMK A01 T03420100  RH  023%=      5-min Rain = 0
KVA1 141636Z 22005KT 35/10 A3012 RMK A01 T03450096  RH  022%=      5-min Rain = 0
KVA1 141637Z 23005KT 35/09 A3012 RMK A01 T03450094  RH  022%=      5-min Rain = 0
KVA1 141638Z 19007KT 35/09 A3012 RMK A01 T03460093  RH  021%=      5-min Rain = 0
KVA1 141639Z 20005KT 35/09 A3012 RMK A01 T03450093  RH  021%=      5-min Rain = 0
KVA1 141640Z 21006KT 35/10 A3012 RMK A01 T03450096  RH  022%=      5-min Rain = 0
KVA1 141641Z 21008KT 35/09 A3012 RMK A01 T03480094  RH  021%=      5-min Rain = 0
KVA1 141642Z 21008KT 35/09 A3012 RMK A01 T03450091  RH  021%=      5-min Rain = 0
KVA1 141643Z 23006KT 34/09 A3012 RMK A01 T03410087  RH  021%=      5-min Rain = 0
KVA1 141644Z 26006KT 34/09 A3012 RMK A01 T03400088  RH  021%=      5-min Rain = 0
KVA1 141645Z 27005KT 34/09 A3012 RMK A01 T03390091  RH  022%=      5-min Rain = 0
KVA1 141646Z 27003KT 34/09 A3012 RMK A01 T03380091  RH  022%=      5-min Rain = 0
KVA1 141647Z 21003KT 34/09 A3012 RMK A01 T03380094  RH  022%=      5-min Rain = 0
KVA1 141648Z 18002KT 34/09 A3012 RMK A01 T03400094  RH  022%=      5-min Rain = 0
KVA1 141649Z 21005KT 34/10 A3012 RMK A01 T03430095  RH  022%=      5-min Rain = 0
KVA1 141650Z 20004KT 35/10 A3012 RMK A01 T03450096  RH  022%=      5-min Rain = 0
KVA1 141651Z 20006KT 35/10 A3012 RMK A01 T03480095  RH  021%=      5-min Rain = 0
KVA1 141652Z 23004KT 35/09 A3012 RMK A01 T03460092  RH  021%=      5-min Rain = 0
KVA1 141653Z 22007KT 34/09 A3012 RMK A01 T03440091  RH  021%=      5-min Rain = 0
KVA1 141654Z 23008KT 35/09 A3012 RMK A01 T03470091  RH  021%=      5-min Rain = 0
KVA1 141655Z 22006KT 35/09 A3012 RMK A01 T03490086  RH  020%=      5-min Rain = 0
KVA1 141656Z 21003KT 35/09 A3012 RMK A01 T03480085  RH  020%=      5-min Rain = 0
KVA1 141657Z 18002KT 35/09 A3012 RMK A01 T03460086  RH  020%=      5-min Rain = 0
KVA1 141658Z 22007KT 35/09 A3012 RMK A01 T03450088  RH  021%=      5-min Rain = 0
KVA1 141659Z 23006KT 35/09 A3012 RMK A01 T03460090  RH  021%=      5-min Rain = 0
KVA1 141700Z 22006KT 35/09 A3012 RMK A01 T03490092  RH  021%=      5-min Rain = 0
KVA1 141701Z 23005KT 35/09 A3012 RMK A01 T03520090  RH  020%=      5-min Rain = 0
KVA1 141702Z 20001KT 35/09 A3012 RMK A01 T03510088  RH  020%=      5-min Rain = 0
KVA1 141703Z 23001KT 35/09 A3012 RMK A01 T03500088  RH  020%=      5-min Rain = 0
KVA1 141704Z 22004KT 35/09 A3012 RMK A01 T03510089  RH  020%=      5-min Rain = 0
KVA1 141705Z 22002KT 35/09 A3011 RMK A01 T03510090  RH  020%=      5-min Rain = 0
KVA1 141706Z 23002KT 35/09 A3011 RMK A01 T03500093  RH  021%=      5-min Rain = 0
KVA1 141707Z 22006KT 35/09 A3011 RMK A01 T03500093  RH  021%=      5-min Rain = 0
KVA1 141708Z 22006KT 35/09 A3011 RMK A01 T03530093  RH  021%=      5-min Rain = 0
KVA1 141709Z 22004KT 35/09 A3011 RMK A01 T03540091  RH  020%=      5-min Rain = 0
KVA1 141710Z 23005KT 35/09 A3011 RMK A01 T03540091  RH  020%=      5-min Rain = 0
KVA1 141711Z 22005KT 36/09 A3011 RMK A01 T03570088  RH  019%=      5-min Rain = 0
KVA1 141712Z 21003KT 36/08 A3011 RMK A01 T03550084  RH  019%=      5-min Rain = 0
KVA1 141713Z 19003KT 35/08 A3011 RMK A01 T03540084  RH  019%=      5-min Rain = 0
KVA1 141714Z 17002KT 35/09 A3011 RMK A01 T03540086  RH  019%=      5-min Rain = 0
KVA1 141715Z 19002KT 35/08 A3011 RMK A01 T03540084  RH  019%=      5-min Rain = 0
KVA1 141716Z 21005KT 36/09 A3011 RMK A01 T03550086  RH  019%=      5-min Rain = 0
KVA1 141717Z 19004KT 36/09 A3011 RMK A01 T03580088  RH  019%=      5-min Rain = 0
KVA1 141718Z 18003KT 36/09 A3011 RMK A01 T03590087  RH  019%=      5-min Rain = 0
KVA1 141719Z 18002KT 36/09 A3011 RMK A01 T03590087  RH  019%=      5-min Rain = 0
KVA1 141720Z 20004KT 36/09 A3011 RMK A01 T03580088  RH  019%=      5-min Rain = 0
KVA1 141721Z 22004KT 36/09 A3011 RMK A01 T03580087  RH  019%=      5-min Rain = 0
KVA1 141722Z 24004KT 36/08 A3011 RMK A01 T03580082  RH  018%=      5-min Rain = 0
KVA1 141723Z 23003KT 36/08 A3011 RMK A01 T03580080  RH  018%=      5-min Rain = 0
KVA1 141724Z 24003KT 36/07 A3011 RMK A01 T03590074  RH  017%=      5-min Rain = 0
KVA1 141725Z 22002KT 36/07 A3011 RMK A01 T03590074  RH  017%=      5-min Rain = 0
KVA1 141726Z 20007KT 36/08 A3011 RMK A01 T03580084  RH  019%=      5-min Rain = 0
KVA1 141727Z 20006KT 36/09 A3011 RMK A01 T03600085  RH  019%=      5-min Rain = 0
KVA1 141728Z 19005KT 36/09 A3011 RMK A01 T03620086  RH  019%=      5-min Rain = 0
KVA1 141729Z 18003KT 36/08 A3011 RMK A01 T03630081  RH  018%=      5-min Rain = 0
KVA1 141730Z 08002KT 36/08 A3011 RMK A01 T03640082  RH  018%=      5-min Rain = 0
KVA1 141731Z 12002KT 36/08 A3011 RMK A01 T03640083  RH  018%=      5-min Rain = 0
KVA1 141732Z 18002KT 36/09 A3011 RMK A01 T03640086  RH  018%=      5-min Rain = 0
KVA1 141733Z 15004KT 37/09 A3011 RMK A01 T03660085  RH  018%=      5-min Rain = 0
KVA1 141734Z 26004KT 37/08 A3011 RMK A01 T03670083  RH  018%=      5-min Rain = 0
KVA1 141735Z 26005KT 37/08 A3011 RMK A01 T03680082  RH  017%=      5-min Rain = 0
KVA1 141736Z 26003KT 37/08 A3011 RMK A01 T03670079  RH  017%=      5-min Rain = 0
KVA1 141737Z 29004KT 37/07 A3011 RMK A01 T03670074  RH  017%=      5-min Rain = 0
KVA1 141738Z 27002KT 37/07 A3011 RMK A01 T03670073  RH  017%=      5-min Rain = 0
KVA1 141739Z 28004KT 37/07 A3011 RMK A01 T03690072  RH  016%=      5-min Rain = 0
KVA1 141740Z 25003KT 37/07 A3011 RMK A01 T03690070  RH  016%=      5-min Rain = 0
KVA1 141741Z 24005KT 37/06 A3011 RMK A01 T03690062  RH  015%=      5-min Rain = 0
KVA1 141742Z 22005KT 37/06 A3011 RMK A01 T03710059  RH  015%=      5-min Rain = 0
KVA1 141743Z 21003KT 37/06 A3011 RMK A01 T03680059  RH  015%=      5-min Rain = 0
KVA1 141744Z 21004KT 37/06 A3011 RMK A01 T03660059  RH  015%=      5-min Rain = 0
KVA1 141745Z 21003KT 37/06 A3011 RMK A01 T03670059  RH  015%=      5-min Rain = 0
KVA1 141746Z 15003KT 37/05 A3011 RMK A01 T03670054  RH  015%=      5-min Rain = 0
KVA1 141747Z 24001KT 37/05 A3011 RMK A01 T03690050  RH  014%=      5-min Rain = 0
KVA1 141748Z 20002KT 37/05 A301 RMK A01 T03720052  RH  014%=      5-min Rain = 0
KVA1 141749Z 29001KT 37/05 A301 RMK A01 T03740053  RH  014%=      5-min Rain = 0
KVA1 141750Z 28003KT 38/05 A301 RMK A01 T03770052  RH  014%=      5-min Rain = 0
KVA1 141751Z 31003KT 38/04 A301 RMK A01 T03760040  RH  012%=      5-min Rain = 0
KVA1 141752Z 35005KT 37/04 A301 RMK A01 T03730036  RH  012%=      5-min Rain = 0
KVA1 141753Z 35006KT 37/05 A301 RMK A01 T03710048  RH  014%=      5-min Rain = 0
KVA1 141754Z 35004KT 37/06 A301 RMK A01 T03700058  RH  015%=      5-min Rain = 0
KVA1 141755Z 00005KT 37/05 A301 RMK A01 T03690054  RH  014%=      5-min Rain = 0
KVA1 141756Z 35005KT 37/06 A301 RMK A01 T03700056  RH  015%=      5-min Rain = 0
KVA1 141757Z 35004KT 37/05 A301 RMK A01 T03710052  RH  014%=      5-min Rain = 0
KVA1 141758Z 03002KT 37/05 A301 RMK A01 T03700051  RH  014%=      5-min Rain = 0
KVA1 141759Z 11001KT 37/06 A301 RMK A01 T03730056  RH  014%=      5-min Rain = 0
KVA1 141800Z 17004KT 38/05 A301 RMK A01 T03750046  RH  013%=      5-min Rain = 0
KVA1 141801Z 20006KT 38/03 A301 RMK A01 T03760026  RH  011%=      5-min Rain = 0
KVA1 141802Z 19006KT 37/03 A301 RMK A01 T03730028  RH  012%=      5-min Rain = 0
KVA1 141803Z 19005KT 37/05 A301 RMK A01 T03710048  RH  014%=      5-min Rain = 0
KVA1 141804Z 17003KT 37/05 A301 RMK A01 T03700051  RH  014%=      5-min Rain = 0
KVA1 141805Z 15002KT 37/05 A301 RMK A01 T03700046  RH  014%=      5-min Rain = 0
KVA1 141806Z 17004KT 37/04 A301 RMK A01 T03720042  RH  013%=      5-min Rain = 0
KVA1 141807Z 15002KT 38/04 A301 RMK A01 T03770040  RH  012%=      5-min Rain = 0
KVA1 141808Z 14003KT 38/04 A301 RMK A01 T03790038  RH  012%=      5-min Rain = 0
KVA1 141809Z 14002KT 38/04 A301 RMK A01 T03790037  RH  012%=      5-min Rain = 0
KVA1 141810Z 18003KT 38/04 A301 RMK A01 T03790040  RH  012%=      5-min Rain = 0
KVA1 141811Z 17004KT 38/04 A301 RMK A01 T03790041  RH  012%=      5-min Rain = 0
KVA1 141812Z 15005KT 38/03 A301 RMK A01 T03810030  RH  011%=      5-min Rain = 0
KVA1 141813Z 10004KT 38/03 A301 RMK A01 T03800028  RH  011%=      5-min Rain = 0
KVA1 141814Z 16002KT 38/03 A301 RMK A01 T03780029  RH  011%=      5-min Rain = 0
KVA1 141815Z 20005KT 38/04 A301 RMK A01 T03780036  RH  012%=      5-min Rain = 0
KVA1 141816Z 20005KT 38/04 A301 RMK A01 T03810041  RH  012%=      5-min Rain = 0
KVA1 141817Z 20008KT 38/04 A3009 RMK A01 T03820040  RH  012%=      5-min Rain = 0
KVA1 141818Z 22007KT 38/04 A301 RMK A01 T03810041  RH  012%=      5-min Rain = 0
KVA1 141819Z 23004KT 38/04 A3009 RMK A01 T03780039  RH  012%=      5-min Rain = 0
KVA1 141820Z 24005KT 38/04 A301 RMK A01 T03770040  RH  013%=      5-min Rain = 0
KVA1 141821Z 22006KT 38/04 A3009 RMK A01 T03800039  RH  012%=      5-min Rain = 0
KVA1 141822Z 21004KT 38/04 A3009 RMK A01 T03840040  RH  012%=      5-min Rain = 0
KVA1 141823Z 21004KT 38/04 A3009 RMK A01 T03830036  RH  012%=      5-min Rain = 0
KVA1 141824Z 21002KT 38/04 A3009 RMK A01 T03810035  RH  012%=      5-min Rain = 0
KVA1 141825Z 25002KT 38/03 A3009 RMK A01 T03790034  RH  012%=      5-min Rain = 0
KVA1 141826Z 21002KT 38/04 A3009 RMK A01 T03790035  RH  012%=      5-min Rain = 0
KVA1 141827Z 23002KT 38/04 A3009 RMK A01 T03800035  RH  012%=      5-min Rain = 0
KVA1 141828Z 16004KT 38/04 A3009 RMK A01 T03820038  RH  012%=      5-min Rain = 0
KVA1 141829Z 16002KT 38/04 A3009 RMK A01 T03840037  RH  012%=      5-min Rain = 0
KVA1 141830Z 09002KT 38/04 A3009 RMK A01 T03830039  RH  012%=      5-min Rain = 0
KVA1 141831Z 14004KT 38/04 A3009 RMK A01 T03830040  RH  012%=      5-min Rain = 0
KVA1 141832Z 13004KT 38/04 A3009 RMK A01 T03830037  RH  012%=      5-min Rain = 0
KVA1 141833Z 13002KT 38/04 A3009 RMK A01 T03810035  RH  012%=      5-min Rain = 0
KVA1 141834Z 20003KT 38/03 A3009 RMK A01 T03790034  RH  012%=      5-min Rain = 0
KVA1 141835Z 17003KT 38/03 A3009 RMK A01 T03800033  RH  012%=      5-min Rain = 0
KVA1 141836Z 14005KT 38/04 A3009 RMK A01 T03820037  RH  012%=      5-min Rain = 0
KVA1 141837Z 16006KT 38/04 A3009 RMK A01 T03820035  RH  012%=      5-min Rain = 0
KVA1 141838Z 20006KT 39/04 A3009 RMK A01 T03850036  RH  012%=      5-min Rain = 0
KVA1 141839Z 20005KT 39/03 A3009 RMK A01 T03850032  RH  011%=      5-min Rain = 0
KVA1 141840Z 21004KT 38/03 A3009 RMK A01 T03830034  RH  012%=      5-min Rain = 0
KVA1 141841Z 27003KT 38/03 A3008 RMK A01 T03830033  RH  011%=      5-min Rain = 0
KVA1 141842Z 22002KT 38/03 A3008 RMK A01 T03820031  RH  011%=      5-min Rain = 0
KVA1 141843Z 16006KT 38/03 A3008 RMK A01 T03820034  RH  012%=      5-min Rain = 0
KVA1 141844Z 18008KT 39/04 A3008 RMK A01 T03870036  RH  012%=      5-min Rain = 0
KVA1 141845Z 17008KT 39/04 A3008 RMK A01 T03910039  RH  011%=      5-min Rain = 0
KVA1 141846Z 20010KT 39/04 A3008 RMK A01 T03900035  RH  011%=      5-min Rain = 0
KVA1 141847Z 20007KT 39/03 A3008 RMK A01 T03860033  RH  011%=      5-min Rain = 0
KVA1 141848Z 20003KT 38/03 A3008 RMK A01 T03830034  RH  012%=      5-min Rain = 0
KVA1 141849Z 17004KT 39/04 A3008 RMK A01 T03850037  RH  012%=      5-min Rain = 0
KVA1 141850Z 18009KT 39/04 A3008 RMK A01 T03880038  RH  012%=      5-min Rain = 0
KVA1 141851Z 19007KT 39/04 A3008 RMK A01 T03890038  RH  012%=      5-min Rain = 0
KVA1 141852Z 20006KT 39/04 A3008 RMK A01 T03870039  RH  012%=      5-min Rain = 0
KVA1 141853Z 20004KT 39/04 A3008 RMK A01 T03850040  RH  012%=      5-min Rain = 0
KVA1 141854Z 16006KT 38/04 A3008 RMK A01 T03830039  RH  012%=      5-min Rain = 0
KVA1 141855Z 16004KT 39/04 A3008 RMK A01 T03850040  RH  012%=      5-min Rain = 0
KVA1 141856Z 18004KT 39/04 A3008 RMK A01 T03880041  RH  012%=      5-min Rain = 0
KVA1 141857Z 18003KT 39/04 A3008 RMK A01 T03920041  RH  012%=      5-min Rain = 0
KVA1 141858Z 16006KT 40/04 A3008 RMK A01 T03950040  RH  011%=      5-min Rain = 0
KVA1 141859Z 17005KT 39/04 A3008 RMK A01 T03930038  RH  011%=      5-min Rain = 0
KVA1 141900Z 22008KT 39/04 A3008 RMK A01 T03910037  RH  011%=      5-min Rain = 0
KVA1 141901Z 22009KT 39/04 A3008 RMK A01 T03900036  RH  011%=      5-min Rain = 0
KVA1 141902Z 23007KT 39/04 A3008 RMK A01 T03880036  RH  011%=      5-min Rain = 0
KVA1 141903Z 24005KT 39/04 A3008 RMK A01 T03850037  RH  012%=      5-min Rain = 0
KVA1 141904Z 26003KT 39/04 A3008 RMK A01 T03870040  RH  012%=      5-min Rain = 0
KVA1 141905Z 28002KT 39/04 A3008 RMK A01 T03900039  RH  012%=      5-min Rain = 0
KVA1 141906Z 26003KT 39/04 A3008 RMK A01 T03870038  RH  012%=      5-min Rain = 0
KVA1 141907Z 24004KT 39/04 A3008 RMK A01 T03850040  RH  012%=      5-min Rain = 0
KVA1 141908Z 23001KT 38/04 A3008 RMK A01 T03830040  RH  012%=      5-min Rain = 0
KVA1 141909Z 32000KT 38/04 A3008 RMK A01 T03830041  RH  012%=      5-min Rain = 0
KVA1 141910Z 30003KT 38/04 A3008 RMK A01 T03840042  RH  012%=      5-min Rain = 0
KVA1 141911Z 31004KT 38/05 A3008 RMK A01 T03840045  RH  012%=      5-min Rain = 0
KVA1 141912Z 32004KT 38/04 A3008 RMK A01 T03840042  RH  012%=      5-min Rain = 0
KVA1 141913Z 02002KT 38/04 A3008 RMK A01 T03820042  RH  012%=      5-min Rain = 0
KVA1 141914Z 02002KT 38/04 A3008 RMK A01 T03830042  RH  012%=      5-min Rain = 0
KVA1 141915Z 02001KT 38/04 A3008 RMK A01 T03840042  RH  012%=      5-min Rain = 0
KVA1 141916Z 10003KT 39/04 A3008 RMK A01 T03860043  RH  012%=      5-min Rain = 0
KVA1 141917Z 08002KT 39/04 A3007 RMK A01 T03870041  RH  012%=      5-min Rain = 0
KVA1 141918Z 04003KT 39/04 A3007 RMK A01 T03870040  RH  012%=      5-min Rain = 0
KVA1 141919Z 08007KT 39/04 A3007 RMK A01 T03860040  RH  012%=      5-min Rain = 0
KVA1 141920Z 09007KT 39/04 A3007 RMK A01 T03870044  RH  012%=      5-min Rain = 0
KVA1 141921Z 10005KT 39/04 A3007 RMK A01 T03880044  RH  012%=      5-min Rain = 0
KVA1 141922Z 15008KT 39/04 A3007 RMK A01 T03900043  RH  012%=      5-min Rain = 0
KVA1 141923Z 16009KT 39/04 A3007 RMK A01 T03930042  RH  012%=      5-min Rain = 0
KVA1 141924Z 16008KT 39/04 A3007 RMK A01 T03920043  RH  012%=      5-min Rain = 0
KVA1 141925Z 15009KT 39/04 A3007 RMK A01 T03930042  RH  012%=      5-min Rain = 0
KVA1 141926Z 15013KT 39/04 A3007 RMK A01 T03930043  RH  012%=      5-min Rain = 0
KVA1 141927Z 14009KT 39/04 A3007 RMK A01 T03920043  RH  012%=      5-min Rain = 0
KVA1 141928Z 13007KT 39/04 A3007 RMK A01 T03910043  RH  012%=      5-min Rain = 0
KVA1 141929Z 14003KT 39/04 A3007 RMK A01 T03900042  RH  012%=      5-min Rain = 0
KVA1 141930Z 12003KT 39/04 A3007 RMK A01 T03880040  RH  012%=      5-min Rain = 0
KVA1 141931Z 12003KT 39/04 A3007 RMK A01 T03880041  RH  012%=      5-min Rain = 0
KVA1 141932Z 14006KT 39/04 A3007 RMK A01 T03880042  RH  012%=      5-min Rain = 0
KVA1 141933Z 12002KT 39/04 A3007 RMK A01 T03880042  RH  012%=      5-min Rain = 0
KVA1 141934Z 12003KT 39/04 A3007 RMK A01 T03870039  RH  012%=      5-min Rain = 0
KVA1 141935Z 03001KT 38/04 A3007 RMK A01 T03830037  RH  012%=      5-min Rain = 0
KVA1 141936Z 01001KT 38/04 A3007 RMK A01 T03810039  RH  012%=      5-min Rain = 0
KVA1 141937Z 04001KT 38/04 A3007 RMK A01 T03820040  RH  012%=      5-min Rain = 0
KVA1 141938Z 06004KT 39/04 A3006 RMK A01 T03850041  RH  012%=      5-min Rain = 0
KVA1 141939Z 05005KT 39/04 A3006 RMK A01 T03860040  RH  012%=      5-min Rain = 0
KVA1 141940Z 06006KT 39/04 A3006 RMK A01 T03890041  RH  012%=      5-min Rain = 0
KVA1 141941Z 08005KT 39/04 A3006 RMK A01 T03890040  RH  012%=      5-min Rain = 0
KVA1 141942Z 07003KT 39/04 A3006 RMK A01 T03860041  RH  012%=      5-min Rain = 0
KVA1 141943Z 01004KT 39/04 A3006 RMK A01 T03870041  RH  012%=      5-min Rain = 0
KVA1 141944Z 35004KT 39/04 A3006 RMK A01 T03890039  RH  012%=      5-min Rain = 0
KVA1 141945Z 31006KT 39/04 A3006 RMK A01 T03890040  RH  012%=      5-min Rain = 0
KVA1 141946Z 30004KT 39/04 A3006 RMK A01 T03890040  RH  012%=      5-min Rain = 0
KVA1 141947Z 31002KT 39/04 A3006 RMK A01 T03880039  RH  012%=      5-min Rain = 0
KVA1 141948Z 33001KT 39/04 A3006 RMK A01 T03870039  RH  012%=      5-min Rain = 0
KVA1 141949Z 30002KT 39/04 A3006 RMK A01 T03850038  RH  012%=      5-min Rain = 0
KVA1 141950Z 30002KT 39/04 A3006 RMK A01 T03860039  RH  012%=      5-min Rain = 0
KVA1 141951Z 14007G14KT 39/04 A3006 RMK A01 T03880040  RH  012%=      5-min Rain = 0
KVA1 141952Z 16005KT 39/04 A3006 RMK A01 T03890043  RH  012%=      5-min Rain = 0
KVA1 141953Z 13007KT 39/04 A3006 RMK A01 T03890044  RH  012%=      5-min Rain = 0
KVA1 141954Z 12008KT 39/04 A3006 RMK A01 T03920043  RH  012%=      5-min Rain = 0
KVA1 141955Z 12005KT 39/04 A3006 RMK A01 T03920043  RH  012%=      5-min Rain = 0
KVA1 141956Z 08002KT 39/04 A3006 RMK A01 T03900044  RH  012%=      5-min Rain = 0
KVA1 141957Z 07003KT 39/04 A3006 RMK A01 T03890043  RH  012%=      5-min Rain = 0
KVA1 141958Z 03001KT 39/04 A3006 RMK A01 T03890042  RH  012%=      5-min Rain = 0
KVA1 141959Z 20003KT 39/04 A3005 RMK A01 T03900043  RH  012%=      5-min Rain = 0
KVA1 142000Z 19005KT 39/04 A3005 RMK A01 T03910042  RH  012%=      5-min Rain = 0
KVA1 142001Z 21004KT 39/04 A3005 RMK A01 T03910043  RH  012%=      5-min Rain = 0
KVA1 142002Z 22004KT 39/04 A3005 RMK A01 T03910042  RH  012%=      5-min Rain = 0
KVA1 142003Z 19003KT 39/04 A3005 RMK A01 T03920042  RH  012%=      5-min Rain = 0
KVA1 142004Z 14001KT 39/04 A3005 RMK A01 T03910040  RH  012%=      5-min Rain = 0
KVA1 142005Z 34001KT 39/04 A3005 RMK A01 T03910041  RH  012%=      5-min Rain = 0
KVA1 142006Z 06003KT 39/04 A3005 RMK A01 T03910042  RH  012%=      5-min Rain = 0
KVA1 142007Z 02006KT 39/05 A3005 RMK A01 T03940045  RH  012%=      5-min Rain = 0
KVA1 142008Z 02007KT 40/05 A3005 RMK A01 T03980045  RH  012%=      5-min Rain = 0
KVA1 142009Z 02008KT 40/04 A3005 RMK A01 T03970044  RH  012%=      5-min Rain = 0
KVA1 142010Z 02009KT 39/04 A3005 RMK A01 T03940044  RH  012%=      5-min Rain = 0
KVA1 142011Z 03007KT 39/04 A3004 RMK A01 T03930044  RH  012%=      5-min Rain = 0
KVA1 142012Z 35007KT 39/04 A3004 RMK A01 T03910044  RH  012%=      5-min Rain = 0
KVA1 142013Z 35007KT 39/05 A3004 RMK A01 T03930045  RH  012%=      5-min Rain = 0
KVA1 142014Z 35008KT 39/05 A3004 RMK A01 T03940045  RH  012%=      5-min Rain = 0
KVA1 142015Z 02005KT 40/05 A3004 RMK A01 T03960046  RH  012%=      5-min Rain = 0
KVA1 142016Z 04006KT 40/05 A3004 RMK A01 T03960045  RH  012%=      5-min Rain = 0
KVA1 142017Z 04005KT 39/04 A3004 RMK A01 T03940044  RH  012%=      5-min Rain = 0
KVA1 142018Z 35004KT 39/05 A3004 RMK A01 T03930045  RH  012%=      5-min Rain = 0
KVA1 142019Z 30003KT 39/04 A3004 RMK A01 T03910043  RH  012%=      5-min Rain = 0
KVA1 142020Z 31001KT 39/04 A3004 RMK A01 T03890043  RH  012%=      5-min Rain = 0
KVA1 142021Z 36003G9KT 39/04 A3004 RMK A01 T03880044  RH  012%=      5-min Rain = 0
KVA1 142022Z 02008KT 39/05 A3004 RMK A01 T03910049  RH  012%=      5-min Rain = 0
KVA1 142023Z 03005KT 39/05 A3004 RMK A01 T03940051  RH  012%=      5-min Rain = 0
KVA1 142024Z 36006KT 39/05 A3004 RMK A01 T03930050  RH  012%=      5-min Rain = 0
KVA1 142025Z 35008G13KT 39/05 A3004 RMK A01 T03930051  RH  012%=      5-min Rain = 0
KVA1 142026Z 01009KT 40/05 A3003 RMK A01 T03980052  RH  012%=      5-min Rain = 0
KVA1 142027Z 04005KT 40/05 A3004 RMK A01 T03960051  RH  012%=      5-min Rain = 0
KVA1 142028Z 04005KT 40/05 A3004 RMK A01 T03960052  RH  012%=      5-min Rain = 0
KVA1 142029Z 04007KT 40/05 A3004 RMK A01 T03990053  RH  012%=      5-min Rain = 0
KVA1 142030Z 07007KT 40/05 A3004 RMK A01 T04030052  RH  012%=      5-min Rain = 0
KVA1 142031Z 08007KT 40/06 A3003 RMK A01 T04030055  RH  012%=      5-min Rain = 0
KVA1 142032Z 07005KT 40/05 A3003 RMK A01 T03990052  RH  012%=      5-min Rain = 0
KVA1 142033Z 07005KT 40/05 A3003 RMK A01 T03960049  RH  012%=      5-min Rain = 0
KVA1 142034Z 09006KT 39/05 A3003 RMK A01 T03920049  RH  012%=      5-min Rain = 0
KVA1 142035Z 05009KT 39/05 A3003 RMK A01 T03930054  RH  013%=      5-min Rain = 0
KVA1 142036Z 04007KT 39/05 A3003 RMK A01 T03940049  RH  012%=      5-min Rain = 0
KVA1 142037Z 05004KT 39/05 A3004 RMK A01 T03900047  RH  012%=      5-min Rain = 0
KVA1 142038Z 07001KT 39/05 A3003 RMK A01 T03850046  RH  012%=      5-min Rain = 0
KVA1 142039Z 04004KT 38/05 A3003 RMK A01 T03830046  RH  013%=      5-min Rain = 0
KVA1 142040Z 07002KT 38/05 A3003 RMK A01 T03830046  RH  013%=      5-min Rain = 0
KVA1 142041Z 06002KT 38/05 A3003 RMK A01 T03840046  RH  013%=      5-min Rain = 0
KVA1 142042Z 01002KT 39/05 A3003 RMK A01 T03850046  RH  012%=      5-min Rain = 0
KVA1 142043Z 32004KT 39/05 A3003 RMK A01 T03880048  RH  012%=      5-min Rain = 0
KVA1 142044Z 33005KT 39/05 A3003 RMK A01 T03890047  RH  012%=      5-min Rain = 0
KVA1 142045Z 04006KT 39/05 A3003 RMK A01 T03920050  RH  012%=      5-min Rain = 0
KVA1 142046Z 04005KT 40/05 A3003 RMK A01 T03970050  RH  012%=      5-min Rain = 0
KVA1 142047Z 04001KT 40/05 A3003 RMK A01 T03960050  RH  012%=      5-min Rain = 0
KVA1 142048Z 07004KT 40/05 A3003 RMK A01 T03960051  RH  012%=      5-min Rain = 0
KVA1 142049Z 06004KT 40/06 A3003 RMK A01 T03960055  RH  013%=      5-min Rain = 0
KVA1 142050Z 05005KT 40/05 A3003 RMK A01 T03970049  RH  012%=      5-min Rain = 0
KVA1 142051Z 07002KT 40/05 A3003 RMK A01 T03950050  RH  012%=      5-min Rain = 0
KVA1 142052Z 34000KT 40/05 A3003 RMK A01 T03950048  RH  012%=      5-min Rain = 0
KVA1 142053Z 15001KT 39/05 A3003 RMK A01 T03940050  RH  012%=      5-min Rain = 0
KVA1 142054Z 09001KT 40/05 A3003 RMK A01 T03970052  RH  012%=      5-min Rain = 0
KVA1 142055Z 29003KT 40/05 A3003 RMK A01 T04000051  RH  012%=      5-min Rain = 0
KVA1 142056Z 30002KT 40/05 A3003 RMK A01 T04010051  RH  012%=      5-min Rain = 0
KVA1 142057Z 02003G8KT 40/05 A3003 RMK A01 T04000051  RH  012%=      5-min Rain = 0
KVA1 142058Z 04009KT 40/05 A3002 RMK A01 T04000050  RH  012%=      5-min Rain = 0
KVA1 142059Z 08010KT 40/05 A3002 RMK A01 T04020052  RH  012%=      5-min Rain = 0
KVA1 142100Z 10008KT 40/05 A3003 RMK A01 T04010051  RH  012%=      5-min Rain = 0
KVA1 142101Z 07007KT 40/05 A3002 RMK A01 T03980051  RH  012%=      5-min Rain = 0
KVA1 142102Z 08008KT 40/05 A3002 RMK A01 T03960051  RH  012%=      5-min Rain = 0
KVA1 142103Z 08007KT 39/05 A3002 RMK A01 T03940053  RH  012%=      5-min Rain = 0
KVA1 142104Z 05006KT 39/05 A3002 RMK A01 T03910053  RH  013%=      5-min Rain = 0
KVA1 142105Z 04003KT 39/05 A3002 RMK A01 T03900049  RH  012%=      5-min Rain = 0
KVA1 142106Z 02002KT 39/05 A3002 RMK A01 T03870049  RH  013%=      5-min Rain = 0
KVA1 142107Z 03006G11KT 39/05 A3002 RMK A01 T03860048  RH  013%=      5-min Rain = 0
KVA1 142108Z 01009KT 39/05 A3002 RMK A01 T03860049  RH  013%=      5-min Rain = 0
KVA1 142109Z 01008KT 39/05 A3002 RMK A01 T03890050  RH  013%=      5-min Rain = 0
KVA1 142110Z 03007KT 39/05 A3002 RMK A01 T03920050  RH  012%=      5-min Rain = 0
KVA1 142111Z 07008KT 39/05 A3002 RMK A01 T03930053  RH  013%=      5-min Rain = 0
KVA1 142112Z 08007KT 39/05 A3002 RMK A01 T03920052  RH  012%=      5-min Rain = 0
KVA1 142113Z 07010KT 39/05 A3002 RMK A01 T03910052  RH  013%=      5-min Rain = 0
KVA1 142114Z 07011KT 39/05 A3002 RMK A01 T03870050  RH  013%=      5-min Rain = 0
KVA1 142115Z 06009KT 39/05 A3002 RMK A01 T03860048  RH  013%=      5-min Rain = 0
KVA1 142116Z 06010KT 39/05 A3002 RMK A01 T03850048  RH  013%=      5-min Rain = 0
KVA1 142117Z 06009KT 39/05 A3002 RMK A01 T03860048  RH  013%=      5-min Rain = 0
KVA1 142118Z 05010KT 39/05 A3002 RMK A01 T03870046  RH  012%=      5-min Rain = 0
KVA1 142119Z 05009KT 39/05 A3002 RMK A01 T03880047  RH  012%=      5-min Rain = 0
KVA1 142120Z 06007KT 39/05 A3002 RMK A01 T03870047  RH  012%=      5-min Rain = 0
KVA1 142121Z 05008KT 39/05 A3002 RMK A01 T03860049  RH  013%=      5-min Rain = 0
KVA1 142122Z 05008KT 39/05 A3002 RMK A01 T03870047  RH  012%=      5-min Rain = 0
KVA1 142123Z 05008KT 39/05 A3002 RMK A01 T03880048  RH  012%=      5-min Rain = 0
KVA1 142124Z 05009KT 39/05 A3002 RMK A01 T03870047  RH  012%=      5-min Rain = 0
KVA1 142125Z 05007KT 39/05 A3002 RMK A01 T03870046  RH  012%=      5-min Rain = 0
KVA1 142126Z 04005KT 39/05 A3002 RMK A01 T03860045  RH  012%=      5-min Rain = 0
KVA1 142127Z 04007KT 38/05 A3002 RMK A01 T03840045  RH  012%=      5-min Rain = 0
KVA1 142128Z 04007KT 38/05 A3002 RMK A01 T03820045  RH  013%=      5-min Rain = 0
KVA1 142129Z 05005KT 38/05 A3002 RMK A01 T03830045  RH  013%=      5-min Rain = 0
KVA1 142130Z 05006KT 39/05 A3002 RMK A01 T03860047  RH  012%=      5-min Rain = 0
KVA1 142131Z 06007KT 39/05 A3002 RMK A01 T03860046  RH  012%=      5-min Rain = 0
KVA1 142132Z 08005KT 39/05 A3002 RMK A01 T03850049  RH  013%=      5-min Rain = 0
KVA1 142133Z 11004KT 38/05 A3002 RMK A01 T03820048  RH  013%=      5-min Rain = 0
KVA1 142134Z 07003KT 38/05 A3002 RMK A01 T03800047  RH  013%=      5-min Rain = 0
KVA1 142135Z 09002KT 38/05 A3002 RMK A01 T03790045  RH  013%=      5-min Rain = 0
KVA1 142136Z 05002KT 38/05 A3002 RMK A01 T03790045  RH  013%=      5-min Rain = 0
KVA1 142137Z 04004KT 38/05 A3002 RMK A01 T03790045  RH  013%=      5-min Rain = 0
KVA1 142138Z 01002KT 38/05 A3002 RMK A01 T03780045  RH  013%=      5-min Rain = 0
KVA1 142139Z 35004KT 38/05 A3002 RMK A01 T03780046  RH  013%=      5-min Rain = 0
KVA1 142140Z 32003KT 38/05 A3001 RMK A01 T03800046  RH  013%=      5-min Rain = 0
KVA1 142141Z 01005KT 38/05 A3001 RMK A01 T03800046  RH  013%=      5-min Rain = 0
KVA1 142142Z 02005KT 38/05 A3001 RMK A01 T03820046  RH  013%=      5-min Rain = 0
KVA1 142143Z 03002KT 39/05 A3001 RMK A01 T03850047  RH  013%=      5-min Rain = 0
KVA1 142144Z 02003KT 39/05 A3001 RMK A01 T03880047  RH  012%=      5-min Rain = 0
KVA1 142145Z 34005KT 39/05 A3001 RMK A01 T03890047  RH  012%=      5-min Rain = 0
KVA1 142146Z 01005KT 39/05 A3001 RMK A01 T03900047  RH  012%=      5-min Rain = 0
KVA1 142147Z 02005KT 39/05 A3001 RMK A01 T03910047  RH  012%=      5-min Rain = 0
KVA1 142148Z 01005KT 39/05 A3001 RMK A01 T03920047  RH  012%=      5-min Rain = 0
KVA1 142149Z 00005KT 39/05 A3001 RMK A01 T03930047  RH  012%=      5-min Rain = 0
KVA1 142150Z 02003KT 39/05 A3001 RMK A01 T03920047  RH  012%=      5-min Rain = 0
KVA1 142151Z 33004KT 39/05 A3001 RMK A01 T03920047  RH  012%=      5-min Rain = 0
KVA1 142152Z 30002KT 39/05 A3001 RMK A01 T03910046  RH  012%=      5-min Rain = 0
KVA1 142153Z 27001KT 39/05 A3001 RMK A01 T03900046  RH  012%=      5-min Rain = 0
KVA1 142154Z 15001KT 39/05 A3001 RMK A01 T03900047  RH  012%=      5-min Rain = 0
KVA1 142155Z 12001KT 39/05 A3001 RMK A01 T03920050  RH  012%=      5-min Rain = 0
KVA1 142156Z 07000KT 40/05 A3001 RMK A01 T03960052  RH  012%=      5-min Rain = 0
KVA1 142157Z 09001KT 40/05 A3001 RMK A01 T03970050  RH  012%=      5-min Rain = 0
KVA1 142158Z 13000KT 40/05 A3001 RMK A01 T03980050  RH  012%=      5-min Rain = 0
KVA1 142159Z 01000KT 40/05 A3001 RMK A01 T04010050  RH  012%=      5-min Rain = 0
KVA1 142200Z 06007G16KT 40/05 A30 RMK A01 T04040050  RH  012%=      5-min Rain = 0
KVA1 142201Z 09007KT 41/06 A3001 RMK A01 T04050056  RH  012%=      5-min Rain = 0
KVA1 142202Z 08006KT 40/06 A3001 RMK A01 T04020056  RH  012%=      5-min Rain = 0
KVA1 142203Z 09007KT 40/05 A3001 RMK A01 T03980052  RH  012%=      5-min Rain = 0
KVA1 142204Z 08005KT 39/05 A3001 RMK A01 T03940050  RH  012%=      5-min Rain = 0
KVA1 142205Z 08004KT 39/05 A3001 RMK A01 T03920052  RH  013%=      5-min Rain = 0
KVA1 142206Z 06001KT 39/05 A30 RMK A01 T03920048  RH  012%=      5-min Rain = 0
KVA1 142207Z 08002KT 39/05 A30 RMK A01 T03920047  RH  012%=      5-min Rain = 0
KVA1 142208Z 09006KT 39/05 A30 RMK A01 T03930051  RH  012%=      5-min Rain = 0
KVA1 142209Z 10006KT 39/05 A30 RMK A01 T03940053  RH  012%=      5-min Rain = 0
KVA1 142210Z 13004KT 40/05 A30 RMK A01 T03950049  RH  012%=      5-min Rain = 0
KVA1 142211Z 09003KT 40/05 A30 RMK A01 T03950049  RH  012%=      5-min Rain = 0
KVA1 142212Z 06007KT 40/05 A30 RMK A01 T03950053  RH  012%=      5-min Rain = 0
KVA1 142213Z 05008KT 40/05 A30 RMK A01 T03980048  RH  012%=      5-min Rain = 0
KVA1 142214Z 04008KT 40/05 A30 RMK A01 T04000047  RH  012%=      5-min Rain = 0
KVA1 142215Z 03009KT 40/05 A30 RMK A01 T04000047  RH  012%=      5-min Rain = 0
KVA1 142216Z 04011KT 40/05 A30 RMK A01 T04030047  RH  011%=      5-min Rain = 0
KVA1 142217Z 03010KT 40/05 A30 RMK A01 T04030046  RH  011%=      5-min Rain = 0
KVA1 142218Z 04007KT 40/05 A30 RMK A01 T04020047  RH  011%=      5-min Rain = 0
KVA1 142219Z 05008KT 40/05 A30 RMK A01 T03990045  RH  011%=      5-min Rain = 0
KVA1 142220Z 06007KT 40/05 A30 RMK A01 T03970047  RH  012%=      5-min Rain = 0
KVA1 142221Z 05006KT 40/05 A30 RMK A01 T03980047  RH  012%=      5-min Rain = 0
KVA1 142222Z 01008KT 40/05 A30 RMK A01 T03990047  RH  012%=      5-min Rain = 0
KVA1 142223Z 02008KT 40/05 A30 RMK A01 T04000047  RH  012%=      5-min Rain = 0
KVA1 142224Z 03006KT 40/05 A30 RMK A01 T04000046  RH  011%=      5-min Rain = 0
KVA1 142225Z 01007KT 40/05 A30 RMK A01 T03980046  RH  012%=      5-min Rain = 0
KVA1 142226Z 04005KT 40/05 A30 RMK A01 T03980046  RH  012%=      5-min Rain = 0
KVA1 142227Z 05004KT 40/05 A30 RMK A01 T03990047  RH  012%=      5-min Rain = 0
KVA1 142228Z 04003KT 40/05 A30 RMK A01 T03980047  RH  012%=      5-min Rain = 0
KVA1 142229Z 07004KT 40/05 A30 RMK A01 T03970047  RH  012%=      5-min Rain = 0
KVA1 142230Z 10005KT 40/05 A30 RMK A01 T03970052  RH  012%=      5-min Rain = 0
KVA1 142231Z 11006KT 40/05 A30 RMK A01 T03990051  RH  012%=      5-min Rain = 0
KVA1 142232Z 12008KT 40/05 A30 RMK A01 T04010050  RH  012%=      5-min Rain = 0
KVA1 142233Z 14007KT 40/05 A30 RMK A01 T04010049  RH  012%=      5-min Rain = 0
KVA1 142234Z 12006KT 40/05 A30 RMK A01 T04010051  RH  012%=      5-min Rain = 0
KVA1 142235Z 12007KT 40/05 A30 RMK A01 T04030051  RH  012%=      5-min Rain = 0
KVA1 142236Z 14005KT 40/05 A30 RMK A01 T04030049  RH  012%=      5-min Rain = 0
KVA1 142237Z 15003KT 40/05 A30 RMK A01 T04010047  RH  012%=      5-min Rain = 0
KVA1 142238Z 17004KT 40/05 A30 RMK A01 T03990048  RH  012%=      5-min Rain = 0
KVA1 142239Z 18004KT 40/05 A30 RMK A01 T04000051  RH  012%=      5-min Rain = 0
KVA1 142240Z 08002KT 40/05 A30 RMK A01 T04020048  RH  012%=      5-min Rain = 0
KVA1 142241Z 04004KT 40/05 A2999 RMK A01 T04030047  RH  011%=      5-min Rain = 0
KVA1 142242Z 36004KT 40/05 A2999 RMK A01 T04030046  RH  011%=      5-min Rain = 0
KVA1 142243Z 36004KT 40/05 A2999 RMK A01 T04010046  RH  011%=      5-min Rain = 0
KVA1 142244Z 34003KT 40/04 A2999 RMK A01 T03980044  RH  012%=      5-min Rain = 0
KVA1 142245Z 31003KT 40/04 A2999 RMK A01 T03960044  RH  012%=      5-min Rain = 0
KVA1 142246Z 29003KT 40/05 A2999 RMK A01 T03960045  RH  012%=      5-min Rain = 0
KVA1 142247Z 24002KT 40/05 A2999 RMK A01 T03990047  RH  012%=      5-min Rain = 0
KVA1 142248Z 25002KT 40/05 A2999 RMK A01 T04010048  RH  012%=      5-min Rain = 0
KVA1 142249Z 14003KT 41/05 A2999 RMK A01 T04050050  RH  012%=      5-min Rain = 0
KVA1 142250Z 16003KT 41/05 A2999 RMK A01 T04050049  RH  011%=      5-min Rain = 0
KVA1 142251Z 10002KT 41/05 A2999 RMK A01 T04050049  RH  011%=      5-min Rain = 0
KVA1 142252Z 07003KT 40/05 A2999 RMK A01 T04030047  RH  011%=      5-min Rain = 0
KVA1 142253Z 05003KT 40/05 A2999 RMK A01 T04010047  RH  012%=      5-min Rain = 0
KVA1 142254Z 02004KT 40/05 A2999 RMK A01 T04010047  RH  012%=      5-min Rain = 0
KVA1 142255Z 01004KT 40/05 A2999 RMK A01 T04010046  RH  011%=      5-min Rain = 0
KVA1 142256Z 02004KT 40/05 A2999 RMK A01 T03990045  RH  011%=      5-min Rain = 0
KVA1 142257Z 33006KT 40/05 A2999 RMK A01 T03990046  RH  012%=      5-min Rain = 0
KVA1 142258Z 34004KT 40/05 A2999 RMK A01 T04000045  RH  011%=      5-min Rain = 0
KVA1 142259Z 33003KT 40/04 A2999 RMK A01 T03970044  RH  012%=      5-min Rain = 0
KVA1 142300Z 32005KT 40/05 A2999 RMK A01 T03980045  RH  012%=      5-min Rain = 0
KVA1 142301Z 30004KT 40/05 A2999 RMK A01 T03990045  RH  011%=      5-min Rain = 0
KVA1 142302Z 27003KT 40/05 A2999 RMK A01 T03990045  RH  011%=      5-min Rain = 0
KVA1 142303Z 24001KT 40/05 A2999 RMK A01 T04000046  RH  011%=      5-min Rain = 0
KVA1 142304Z 15001KT 40/05 A2999 RMK A01 T04000046  RH  011%=      5-min Rain = 0
KVA1 142305Z 07003KT 40/05 A2999 RMK A01 T04010047  RH  012%=      5-min Rain = 0
KVA1 142306Z 09005KT 40/05 A2999 RMK A01 T04030050  RH  012%=      5-min Rain = 0
KVA1 142307Z 10004KT 40/05 A2999 RMK A01 T04030049  RH  012%=      5-min Rain = 0
KVA1 142308Z 11004KT 40/05 A2999 RMK A01 T04010049  RH  012%=      5-min Rain = 0
KVA1 142309Z 08003KT 40/05 A2998 RMK A01 T04000046  RH  012%=      5-min Rain = 0
KVA1 142310Z 06002KT 40/04 A2998 RMK A01 T03990044  RH  011%=      5-min Rain = 0
KVA1 142311Z 00001KT 40/04 A2998 RMK A01 T03990044  RH  011%=      5-min Rain = 0
KVA1 142312Z 01000KT 40/05 A2998 RMK A01 T04020045  RH  011%=      5-min Rain = 0
KVA1 142313Z 10003KT 40/05 A2998 RMK A01 T04040047  RH  011%=      5-min Rain = 0
KVA1 142314Z 09005KT 41/05 A2998 RMK A01 T04050051  RH  012%=      5-min Rain = 0
KVA1 142315Z 09004KT 40/05 A2998 RMK A01 T04040050  RH  012%=      5-min Rain = 0
KVA1 142316Z 13004KT 40/05 A2998 RMK A01 T04020047  RH  011%=      5-min Rain = 0
KVA1 142317Z 15007KT 40/05 A2999 RMK A01 T04020047  RH  011%=      5-min Rain = 0
KVA1 142318Z 17004KT 40/05 A2998 RMK A01 T04030048  RH  011%=      5-min Rain = 0
KVA1 142319Z 07007KT 41/05 A2998 RMK A01 T04060047  RH  011%=      5-min Rain = 0
KVA1 142320Z 08008KT 40/05 A2998 RMK A01 T04040048  RH  011%=      5-min Rain = 0
KVA1 142321Z 07006KT 40/05 A2998 RMK A01 T04020047  RH  011%=      5-min Rain = 0
KVA1 142322Z 04005KT 40/05 A2998 RMK A01 T04000046  RH  011%=      5-min Rain = 0
KVA1 142323Z 04003KT 40/05 A2998 RMK A01 T04000045  RH  011%=      5-min Rain = 0
KVA1 142324Z 05003KT 40/04 A2998 RMK A01 T04000044  RH  011%=      5-min Rain = 0
KVA1 142325Z 10005KT 40/05 A2998 RMK A01 T04000048  RH  012%=      5-min Rain = 0
KVA1 142326Z 12005KT 40/05 A2998 RMK A01 T03990047  RH  012%=      5-min Rain = 0
KVA1 142327Z 08007KT 40/05 A2998 RMK A01 T03970049  RH  012%=      5-min Rain = 0
KVA1 142328Z 09006KT 40/05 A2998 RMK A01 T03960050  RH  012%=      5-min Rain = 0
KVA1 142329Z 10004KT 40/05 A2998 RMK A01 T03950050  RH  012%=      5-min Rain = 0
KVA1 142330Z 11003KT 40/05 A2998 RMK A01 T03950047  RH  012%=      5-min Rain = 0
KVA1 142331Z 09005KT 40/05 A2998 RMK A01 T03960047  RH  012%=      5-min Rain = 0
KVA1 142332Z 09008KT 40/05 A2998 RMK A01 T03960049  RH  012%=      5-min Rain = 0
KVA1 142333Z 10006KT 40/05 A2998 RMK A01 T03950049  RH  012%=      5-min Rain = 0
KVA1 142334Z 12006KT 40/05 A2998 RMK A01 T03950048  RH  012%=      5-min Rain = 0
KVA1 142335Z 13004KT 40/05 A2998 RMK A01 T03950046  RH  012%=      5-min Rain = 0
KVA1 142336Z 13002KT 39/05 A2998 RMK A01 T03940046  RH  012%=      5-min Rain = 0
KVA1 142337Z 13003KT 39/05 A2998 RMK A01 T03940046  RH  012%=      5-min Rain = 0
KVA1 142338Z 11005KT 39/05 A2998 RMK A01 T03930048  RH  012%=      5-min Rain = 0
KVA1 142339Z 11005KT 39/05 A2998 RMK A01 T03940046  RH  012%=      5-min Rain = 0
KVA1 142340Z 13007KT 40/05 A2998 RMK A01 T03950046  RH  012%=      5-min Rain = 0
KVA1 142341Z 14006KT 40/05 A2998 RMK A01 T03950045  RH  012%=      5-min Rain = 0
KVA1 142342Z 13005KT 40/04 A2998 RMK A01 T03950044  RH  012%=      5-min Rain = 0
KVA1 142343Z 12004KT 39/04 A2998 RMK A01 T03940044  RH  012%=      5-min Rain = 0
KVA1 142344Z 11003KT 39/05 A2998 RMK A01 T03930045  RH  012%=      5-min Rain = 0
KVA1 142345Z 12003KT 39/04 A2998 RMK A01 T03920044  RH  012%=      5-min Rain = 0
KVA1 142346Z 11003KT 39/04 A2998 RMK A01 T03920043  RH  012%=      5-min Rain = 0
KVA1 142347Z 08008KT 39/05 A2998 RMK A01 T03910046  RH  012%=      5-min Rain = 0
KVA1 142348Z 08005KT 39/05 A2998 RMK A01 T03900047  RH  012%=      5-min Rain = 0
KVA1 142349Z 09007KT 39/05 A2998 RMK A01 T03910047  RH  012%=      5-min Rain = 0
KVA1 142350Z 09008KT 39/05 A2998 RMK A01 T03910045  RH  012%=      5-min Rain = 0
KVA1 142351Z 08008KT 39/05 A2998 RMK A01 T03910046  RH  012%=      5-min Rain = 0
KVA1 142352Z 09008KT 39/05 A2998 RMK A01 T03900046  RH  012%=      5-min Rain = 0
KVA1 142353Z 09008KT 39/05 A2998 RMK A01 T03900048  RH  012%=      5-min Rain = 0
KVA1 142354Z 09008KT 39/05 A2998 RMK A01 T03910047  RH  012%=      5-min Rain = 0
KVA1 142355Z 09006KT 39/05 A2998 RMK A01 T03910049  RH  012%=      5-min Rain = 0
KVA1 142356Z 09004KT 39/05 A2998 RMK A01 T03920048  RH  012%=      5-min Rain = 0
KVA1 142357Z 09004KT 39/05 A2998 RMK A01 T03920051  RH  012%=      5-min Rain = 0
KVA1 142358Z 07004KT 39/05 A2998 RMK A01 T03920047  RH  012%=      5-min Rain = 0
KVA1 142359Z 05003KT 39/04 A2998 RMK A01 T03920043  RH  012%=      5-min Rain = 0
KVA1 150000Z 06003KT 39/04 A2998 RMK A01 T03920042  RH  012%=      5-min Rain = 0
KVA1 150001Z 05002KT 39/04 A2998 RMK A01 T03910041  RH  012%=      5-min Rain = 0
KVA1 150002Z 04001KT 39/04 A2998 RMK A01 T03910041  RH  012%=      5-min Rain = 0
KVA1 150003Z 05001KT 39/04 A2998 RMK A01 T03910041  RH  012%=      5-min Rain = 0
KVA1 150004Z 06002KT 39/04 A2998 RMK A01 T03910042  RH  012%=      5-min Rain = 0
KVA1 150005Z 07002KT 39/04 A2998 RMK A01 T03920042  RH  012%=      5-min Rain = 0
KVA1 150006Z 07001KT 39/05 A2998 RMK A01 T03910047  RH  012%=      5-min Rain = 0
KVA1 150007Z 09002KT 39/04 A2998 RMK A01 T03900044  RH  012%=      5-min Rain = 0
KVA1 150008Z 10003KT 39/05 A2998 RMK A01 T03900051  RH  013%=      5-min Rain = 0
KVA1 150009Z 10003KT 39/05 A2998 RMK A01 T03890047  RH  012%=      5-min Rain = 0
KVA1 150010Z 08005KT 39/05 A2998 RMK A01 T03880046  RH  012%=      5-min Rain = 0
KVA1 150011Z 08003KT 39/05 A2998 RMK A01 T03870045  RH  012%=      5-min Rain = 0
KVA1 150012Z 10004KT 39/05 A2998 RMK A01 T03880045  RH  012%=      5-min Rain = 0
KVA1 150013Z 08004KT 39/05 A2998 RMK A01 T03870048  RH  012%=      5-min Rain = 0
KVA1 150014Z 08005KT 39/05 A2998 RMK A01 T03870046  RH  012%=      5-min Rain = 0
KVA1 150015Z 09007KT 39/05 A2998 RMK A01 T03870047  RH  012%=      5-min Rain = 0
KVA1 150016Z 11005KT 39/05 A2998 RMK A01 T03870046  RH  012%=      5-min Rain = 0
KVA1 150017Z 12005KT 39/05 A2998 RMK A01 T03870046  RH  012%=      5-min Rain = 0
KVA1 150018Z 12005KT 39/05 A2998 RMK A01 T03880045  RH  012%=      5-min Rain = 0
KVA1 150019Z 10006KT 39/04 A2998 RMK A01 T03880044  RH  012%=      5-min Rain = 0
KVA1 150020Z 10006KT 39/05 A2998 RMK A01 T03880046  RH  012%=      5-min Rain = 0
KVA1 150021Z 11005KT 39/04 A2998 RMK A01 T03870044  RH  012%=      5-min Rain = 0
KVA1 150022Z 11004KT 39/05 A2998 RMK A01 T03870047  RH  012%=      5-min Rain = 0
KVA1 150023Z 08006KT 39/05 A2998 RMK A01 T03870047  RH  012%=      5-min Rain = 0
KVA1 150024Z 06006KT 39/05 A2998 RMK A01 T03860048  RH  013%=      5-min Rain = 0
KVA1 150025Z 07009KT 39/05 A2998 RMK A01 T03860046  RH  012%=      5-min Rain = 0
KVA1 150026Z 06008KT 39/05 A2998 RMK A01 T03850045  RH  012%=      5-min Rain = 0
KVA1 150027Z 05006KT 39/05 A2998 RMK A01 T03850045  RH  012%=      5-min Rain = 0
KVA1 150028Z 05006KT 39/05 A2998 RMK A01 T03860045  RH  012%=      5-min Rain = 0
KVA1 150029Z 06006KT 39/05 A2998 RMK A01 T03860045  RH  012%=      5-min Rain = 0
KVA1 150030Z 09008KT 39/05 A2998 RMK A01 T03860050  RH  013%=      5-min Rain = 0
KVA1 150031Z 09007KT 39/05 A2998 RMK A01 T03850050  RH  013%=      5-min Rain = 0
KVA1 150032Z 08007KT 39/05 A2998 RMK A01 T03850050  RH  013%=      5-min Rain = 0
KVA1 150033Z 08005KT 38/05 A2998 RMK A01 T03840049  RH  013%=      5-min Rain = 0
KVA1 150034Z 09006KT 38/05 A2998 RMK A01 T03830052  RH  013%=      5-min Rain = 0
KVA1 150035Z 09006KT 38/05 A2998 RMK A01 T03830050  RH  013%=      5-min Rain = 0
KVA1 150036Z 09007KT 38/05 A2998 RMK A01 T03820050  RH  013%=      5-min Rain = 0
KVA1 150037Z 10007KT 38/05 A2998 RMK A01 T03820048  RH  013%=      5-min Rain = 0
KVA1 150038Z 09008KT 38/05 A2998 RMK A01 T03820049  RH  013%=      5-min Rain = 0
KVA1 150039Z 08010KT 38/05 A2998 RMK A01 T03820048  RH  013%=      5-min Rain = 0
KVA1 150040Z 08008KT 38/05 A2998 RMK A01 T03820047  RH  013%=      5-min Rain = 0
KVA1 150041Z 08007KT 38/05 A2998 RMK A01 T03820048  RH  013%=      5-min Rain = 0
KVA1 150042Z 09007KT 38/05 A2998 RMK A01 T03810049  RH  013%=      5-min Rain = 0
KVA1 150043Z 07005KT 38/05 A2998 RMK A01 T03800049  RH  013%=      5-min Rain = 0
KVA1 150044Z 07004KT 38/05 A2998 RMK A01 T03800049  RH  013%=      5-min Rain = 0
KVA1 150045Z 06004KT 38/05 A2998 RMK A01 T03800050  RH  013%=      5-min Rain = 0
KVA1 150046Z 09005KT 38/05 A2998 RMK A01 T03800047  RH  013%=      5-min Rain = 0
KVA1 150047Z 09005KT 38/05 A2998 RMK A01 T03810051  RH  013%=      5-min Rain = 0
KVA1 150048Z 06006KT 38/05 A2998 RMK A01 T03800049  RH  013%=      5-min Rain = 0
KVA1 150049Z 07008KT 38/05 A2998 RMK A01 T03800046  RH  013%=      5-min Rain = 0
KVA1 150050Z 07007KT 38/05 A2998 RMK A01 T03810047  RH  013%=      5-min Rain = 0
KVA1 150051Z 08008KT 38/05 A2998 RMK A01 T03810049  RH  013%=      5-min Rain = 0
KVA1 150052Z 06008KT 38/05 A2998 RMK A01 T03800049  RH  013%=      5-min Rain = 0
KVA1 150053Z 07007KT 38/05 A2998 RMK A01 T03800047  RH  013%=      5-min Rain = 0
KVA1 150054Z 06008KT 38/05 A2998 RMK A01 T03800047  RH  013%=      5-min Rain = 0
KVA1 150055Z 07008KT 38/05 A2998 RMK A01 T03810046  RH  013%=      5-min Rain = 0
KVA1 150056Z 07008KT 38/05 A2998 RMK A01 T03810046  RH  013%=      5-min Rain = 0
KVA1 150057Z 07009KT 38/05 A2998 RMK A01 T03810047  RH  013%=      5-min Rain = 0
KVA1 150058Z 07009KT 38/05 A2998 RMK A01 T03800046  RH  013%=      5-min Rain = 0
KVA1 150059Z 07008KT 38/05 A2998 RMK A01 T03790045  RH  013%=      5-min Rain = 0
KVA1 150100Z 07007KT 38/05 A2998 RMK A01 T03790046  RH  013%=      5-min Rain = 0
KVA1 150101Z 08006KT 38/05 A2998 RMK A01 T03790047  RH  013%=      5-min Rain = 0
KVA1 150102Z 08006KT 38/05 A2998 RMK A01 T03790050  RH  013%=      5-min Rain = 0
KVA1 150103Z 08008KT 38/05 A2998 RMK A01 T03780049  RH  013%=      5-min Rain = 0
KVA1 150104Z 08009KT 38/05 A2998 RMK A01 T03770047  RH  013%=      5-min Rain = 0
KVA1 150105Z 08008KT 38/05 A2998 RMK A01 T03770047  RH  013%=      5-min Rain = 0
KVA1 150106Z 08010KT 38/05 A2998 RMK A01 T03760047  RH  013%=      5-min Rain = 0
KVA1 150107Z 07009KT 38/05 A2998 RMK A01 T03760046  RH  013%=      5-min Rain = 0
KVA1 150108Z 08009KT 38/05 A2998 RMK A01 T03770046  RH  013%=      5-min Rain = 0
KVA1 150109Z 08008KT 38/05 A2998 RMK A01 T03770047  RH  013%=      5-min Rain = 0
KVA1 150110Z 08008KT 38/05 A2998 RMK A01 T03770046  RH  013%=      5-min Rain = 0
KVA1 150111Z 07007KT 38/05 A2999 RMK A01 T03770046  RH  013%=      5-min Rain = 0
KVA1 150112Z 08006KT 38/05 A2999 RMK A01 T03760048  RH  013%=      5-min Rain = 0
KVA1 150113Z 07006KT 38/05 A2999 RMK A01 T03750047  RH  013%=      5-min Rain = 0
KVA1 150114Z 07007KT 38/05 A2999 RMK A01 T03750046  RH  013%=      5-min Rain = 0
KVA1 150115Z 07007KT 38/05 A2999 RMK A01 T03750045  RH  013%=      5-min Rain = 0
KVA1 150116Z 08008KT 38/05 A2999 RMK A01 T03750045  RH  013%=      5-min Rain = 0
KVA1 150117Z 08007KT 38/04 A2999 RMK A01 T03750044  RH  013%=      5-min Rain = 0
KVA1 150118Z 07006KT 37/05 A2999 RMK A01 T03740045  RH  013%=      5-min Rain = 0
KVA1 150119Z 08008KT 37/04 A2999 RMK A01 T03740044  RH  013%=      5-min Rain = 0
KVA1 150120Z 07006KT 37/04 A2999 RMK A01 T03740044  RH  013%=      5-min Rain = 0
KVA1 150121Z 07006KT 37/04 A2999 RMK A01 T03730044  RH  013%=      5-min Rain = 0
KVA1 150122Z 08006KT 37/04 A2999 RMK A01 T03730044  RH  013%=      5-min Rain = 0
KVA1 150123Z 08005KT 37/04 A2999 RMK A01 T03730044  RH  013%=      5-min Rain = 0
KVA1 150124Z 07006KT 37/04 A2999 RMK A01 T03720044  RH  013%=      5-min Rain = 0
KVA1 150125Z 08006KT 37/04 A2999 RMK A01 T03720044  RH  013%=      5-min Rain = 0
KVA1 150126Z 08006KT 37/04 A2999 RMK A01 T03710044  RH  013%=      5-min Rain = 0
KVA1 150127Z 08006KT 37/05 A2999 RMK A01 T03710046  RH  013%=      5-min Rain = 0
KVA1 150128Z 07005KT 37/05 A2999 RMK A01 T03700046  RH  013%=      5-min Rain = 0
KVA1 150129Z 07006KT 37/04 A2999 RMK A01 T03690044  RH  013%=      5-min Rain = 0
KVA1 150130Z 08007KT 37/05 A2999 RMK A01 T03690045  RH  014%=      5-min Rain = 0
KVA1 150131Z 08006KT 37/05 A2999 RMK A01 T03680045  RH  014%=      5-min Rain = 0
KVA1 150132Z 08007KT 37/05 A2999 RMK A01 T03670045  RH  014%=      5-min Rain = 0
KVA1 150133Z 08006KT 37/05 A2999 RMK A01 T03670045  RH  014%=      5-min Rain = 0
KVA1 150134Z 09007KT 37/05 A2999 RMK A01 T03660046  RH  014%=      5-min Rain = 0
KVA1 150135Z 08007KT 37/05 A2999 RMK A01 T03660045  RH  014%=      5-min Rain = 0
KVA1 150136Z 08006KT 37/04 A2999 RMK A01 T03660044  RH  014%=      5-min Rain = 0
KVA1 150137Z 08006KT 37/05 A2999 RMK A01 T03650046  RH  014%=      5-min Rain = 0
KVA1 150138Z 08006KT 37/05 A2999 RMK A01 T03650045  RH  014%=      5-min Rain = 0
KVA1 150139Z 08005KT 36/04 A2999 RMK A01 T03640044  RH  014%=      5-min Rain = 0
KVA1 150140Z 08006KT 36/05 A2999 RMK A01 T03640045  RH  014%=      5-min Rain = 0
KVA1 150141Z 08005KT 36/05 A2999 RMK A01 T03630046  RH  014%=      5-min Rain = 0
KVA1 150142Z 09006KT 36/05 A2999 RMK A01 T03620046  RH  014%=      5-min Rain = 0
KVA1 150143Z 09006KT 36/05 A2999 RMK A01 T03620045  RH  014%=      5-min Rain = 0
KVA1 150144Z 09006KT 36/05 A2999 RMK A01 T03620046  RH  014%=      5-min Rain = 0
KVA1 150145Z 09006KT 36/05 A30 RMK A01 T03610046  RH  014%=      5-min Rain = 0
KVA1 150146Z 09005KT 36/05 A30 RMK A01 T03610046  RH  014%=      5-min Rain = 0
KVA1 150147Z 09006KT 36/05 A30 RMK A01 T03600045  RH  014%=      5-min Rain = 0
KVA1 150148Z 09005KT 36/05 A30 RMK A01 T03610046  RH  014%=      5-min Rain = 0
KVA1 150149Z 09006KT 36/05 A30 RMK A01 T03600046  RH  014%=      5-min Rain = 0
KVA1 150150Z 08005KT 36/05 A30 RMK A01 T03600045  RH  014%=      5-min Rain = 0
KVA1 150151Z 09005KT 36/05 A30 RMK A01 T03600045  RH  014%=      5-min Rain = 0
KVA1 150152Z 09005KT 36/05 A30 RMK A01 T03590046  RH  014%=      5-min Rain = 0
KVA1 150153Z 09006KT 36/05 A30 RMK A01 T03590046  RH  014%=      5-min Rain = 0
KVA1 150154Z 09006KT 36/05 A30 RMK A01 T03580045  RH  014%=      5-min Rain = 0
KVA1 150155Z 09006KT 36/05 A30 RMK A01 T03580045  RH  014%=      5-min Rain = 0
KVA1 150156Z 09006KT 36/05 A30 RMK A01 T03580045  RH  014%=      5-min Rain = 0
KVA1 150157Z 09006KT 36/05 A30 RMK A01 T03580045  RH  014%=      5-min Rain = 0
KVA1 150158Z 09005KT 36/04 A30 RMK A01 T03580044  RH  014%=      5-min Rain = 0
KVA1 150159Z 09006KT 36/04 A30 RMK A01 T03580044  RH  014%=      5-min Rain = 0
KVA1 150200Z 09005KT 36/05 A30 RMK A01 T03580045  RH  014%=      5-min Rain = 0
KVA1 150201Z 09006KT 36/05 A30 RMK A01 T03580046  RH  014%=      5-min Rain = 0
KVA1 150202Z 09005KT 36/04 A30 RMK A01 T03570044  RH  014%=      5-min Rain = 0
KVA1 150203Z 09005KT 36/05 A30 RMK A01 T03570045  RH  014%=      5-min Rain = 0
KVA1 150204Z 09006KT 36/05 A30 RMK A01 T03570045  RH  014%=      5-min Rain = 0
KVA1 150205Z 09006KT 36/05 A30 RMK A01 T03570045  RH  014%=      5-min Rain = 0
KVA1 150206Z 08007KT 36/05 A30 RMK A01 T03570045  RH  014%=      5-min Rain = 0
KVA1 150207Z 09005KT 36/04 A30 RMK A01 T03560044  RH  014%=      5-min Rain = 0
KVA1 150208Z 08006KT 36/05 A30 RMK A01 T03560046  RH  015%=      5-min Rain = 0
KVA1 150209Z 09006KT 36/05 A30 RMK A01 T03560045  RH  014%=      5-min Rain = 0
KVA1 150210Z 09006KT 36/05 A30 RMK A01 T03560045  RH  014%=      5-min Rain = 0
KVA1 150211Z 08005KT 36/04 A30 RMK A01 T03550044  RH  014%=      5-min Rain = 0
KVA1 150212Z 09005KT 36/05 A30 RMK A01 T03550045  RH  015%=      5-min Rain = 0
KVA1 150213Z 09006KT 35/05 A30 RMK A01 T03540045  RH  015%=      5-min Rain = 0
KVA1 150214Z 09006KT 35/05 A30 RMK A01 T03540045  RH  015%=      5-min Rain = 0
KVA1 150215Z 09005KT 35/05 A30 RMK A01 T03540045  RH  015%=      5-min Rain = 0
KVA1 150216Z 09005KT 35/05 A30 RMK A01 T03530045  RH  015%=      5-min Rain = 0
KVA1 150217Z 09005KT 35/05 A30 RMK A01 T03530045  RH  015%=      5-min Rain = 0
KVA1 150218Z 09005KT 35/05 A30 RMK A01 T03530045  RH  015%=      5-min Rain = 0
KVA1 150219Z 09005KT 35/05 A30 RMK A01 T03530045  RH  015%=      5-min Rain = 0
KVA1 150220Z 09006KT 35/05 A30 RMK A01 T03520045  RH  015%=      5-min Rain = 0
KVA1 150221Z 09006KT 35/05 A30 RMK A01 T03520045  RH  015%=      5-min Rain = 0
KVA1 150222Z 09006KT 35/04 A30 RMK A01 T03520044  RH  015%=      5-min Rain = 0
KVA1 150223Z 09006KT 35/05 A3001 RMK A01 T03520045  RH  015%=      5-min Rain = 0
KVA1 150224Z 09006KT 35/05 A3001 RMK A01 T03520045  RH  015%=      5-min Rain = 0
KVA1 150225Z 09005KT 35/04 A3001 RMK A01 T03520044  RH  015%=      5-min Rain = 0
KVA1 150226Z 09007KT 35/04 A3001 RMK A01 T03510044  RH  015%=      5-min Rain = 0
KVA1 150227Z 09006KT 35/05 A3001 RMK A01 T03510045  RH  015%=      5-min Rain = 0
KVA1 150228Z 09006KT 35/05 A3001 RMK A01 T03510045  RH  015%=      5-min Rain = 0
KVA1 150229Z 09006KT 35/05 A3001 RMK A01 T03510045  RH  015%=      5-min Rain = 0
KVA1 150230Z 08006KT 35/05 A3001 RMK A01 T03510046  RH  015%=      5-min Rain = 0
KVA1 150231Z 09006KT 35/05 A3001 RMK A01 T03500045  RH  015%=      5-min Rain = 0
KVA1 150232Z 09006KT 35/05 A3001 RMK A01 T03500045  RH  015%=      5-min Rain = 0
KVA1 150233Z 09006KT 35/05 A3001 RMK A01 T03500045  RH  015%=      5-min Rain = 0
KVA1 150234Z 09005KT 35/05 A3001 RMK A01 T03500045  RH  015%=      5-min Rain = 0
KVA1 150235Z 09006KT 35/05 A3001 RMK A01 T03500045  RH  015%=      5-min Rain = 0
KVA1 150236Z 09005KT 35/05 A3001 RMK A01 T03490045  RH  015%=      5-min Rain = 0
KVA1 150237Z 09006KT 35/05 A3001 RMK A01 T03490045  RH  015%=      5-min Rain = 0
KVA1 150238Z 09006KT 35/05 A3001 RMK A01 T03490045  RH  015%=      5-min Rain = 0
KVA1 150239Z 10006KT 35/04 A3001 RMK A01 T03490044  RH  015%=      5-min Rain = 0
KVA1 150240Z 09006KT 35/05 A3001 RMK A01 T03490045  RH  015%=      5-min Rain = 0
KVA1 150241Z 10006KT 35/04 A3001 RMK A01 T03490044  RH  015%=      5-min Rain = 0
KVA1 150242Z 09005KT 35/04 A3001 RMK A01 T03490044  RH  015%=      5-min Rain = 0
KVA1 150243Z 09005KT 35/04 A3001 RMK A01 T03490044  RH  015%=      5-min Rain = 0
KVA1 150244Z 09005KT 35/05 A3001 RMK A01 T03480045  RH  015%=      5-min Rain = 0
KVA1 150245Z 09005KT 35/05 A3001 RMK A01 T03470046  RH  015%=      5-min Rain = 0
KVA1 150246Z 09004KT 35/05 A3001 RMK A01 T03470046  RH  015%=      5-min Rain = 0
KVA1 150247Z 09004KT 35/05 A3001 RMK A01 T03460046  RH  015%=      5-min Rain = 0
KVA1 150248Z 09004KT 35/05 A3001 RMK A01 T03460046  RH  015%=      5-min Rain = 0
KVA1 150249Z 09004KT 35/05 A3001 RMK A01 T03450046  RH  015%=      5-min Rain = 0
KVA1 150250Z 09005KT 35/05 A3002 RMK A01 T03450046  RH  015%=      5-min Rain = 0
KVA1 150251Z 09004KT 34/05 A3002 RMK A01 T03440046  RH  016%=      5-min Rain = 0
KVA1 150252Z 10005KT 34/05 A3002 RMK A01 T03440046  RH  016%=      5-min Rain = 0
KVA1 150253Z 10004KT 34/05 A3002 RMK A01 T03440045  RH  016%=      5-min Rain = 0
KVA1 150254Z 09004KT 34/05 A3002 RMK A01 T03440046  RH  016%=      5-min Rain = 0
KVA1 150255Z 09005KT 34/05 A3002 RMK A01 T03440045  RH  016%=      5-min Rain = 0
KVA1 150256Z 09004KT 34/05 A3002 RMK A01 T03440046  RH  016%=      5-min Rain = 0
KVA1 150257Z 09005KT 34/05 A3002 RMK A01 T03430046  RH  016%=      5-min Rain = 0
KVA1 150258Z 09004KT 34/05 A3002 RMK A01 T03430045  RH  016%=      5-min Rain = 0
KVA1 150259Z 10005KT 34/05 A3002 RMK A01 T03430047  RH  016%=      5-min Rain = 0
KVA1 150300Z 09004KT 34/05 A3002 RMK A01 T03420047  RH  016%=      5-min Rain = 0
KVA1 150301Z 09004KT 34/05 A3002 RMK A01 T03420047  RH  016%=      5-min Rain = 0
KVA1 150302Z 09004KT 34/05 A3002 RMK A01 T03410047  RH  016%=      5-min Rain = 0
KVA1 150303Z 10004KT 34/05 A3002 RMK A01 T03410046  RH  016%=      5-min Rain = 0
KVA1 150304Z 10004KT 34/05 A3002 RMK A01 T03410047  RH  016%=      5-min Rain = 0
KVA1 150305Z 10004KT 34/05 A3002 RMK A01 T03410047  RH  016%=      5-min Rain = 0
KVA1 150306Z 10004KT 34/05 A3002 RMK A01 T03400046  RH  016%=      5-min Rain = 0
KVA1 150307Z 10004KT 34/05 A3002 RMK A01 T03400047  RH  016%=      5-min Rain = 0
KVA1 150308Z 09004KT 34/05 A3002 RMK A01 T03410046  RH  016%=      5-min Rain = 0
KVA1 150309Z 09004KT 34/05 A3002 RMK A01 T03410046  RH  016%=      5-min Rain = 0
KVA1 150310Z 09004KT 34/05 A3002 RMK A01 T03400046  RH  016%=      5-min Rain = 0
KVA1 150311Z 09005KT 34/05 A3002 RMK A01 T03400046  RH  016%=      5-min Rain = 0
KVA1 150312Z 09004KT 34/05 A3002 RMK A01 T03410045  RH  016%=      5-min Rain = 0
KVA1 150313Z 10005KT 34/05 A3002 RMK A01 T03410045  RH  016%=      5-min Rain = 0
KVA1 150314Z 09005KT 34/05 A3002 RMK A01 T03410045  RH  016%=      5-min Rain = 0
KVA1 150315Z 09005KT 34/05 A3002 RMK A01 T03410045  RH  016%=      5-min Rain = 0
KVA1 150316Z 10004KT 34/05 A3002 RMK A01 T03410045  RH  016%=      5-min Rain = 0
KVA1 150317Z 10005KT 34/05 A3002 RMK A01 T03410045  RH  016%=      5-min Rain = 0
KVA1 150318Z 09005KT 34/05 A3002 RMK A01 T03410045  RH  016%=      5-min Rain = 0
KVA1 150319Z 10005KT 34/04 A3002 RMK A01 T03410044  RH  016%=      5-min Rain = 0
KVA1 150320Z 10005KT 34/04 A3002 RMK A01 T03420044  RH  016%=      5-min Rain = 0
KVA1 150321Z 10005KT 34/04 A3002 RMK A01 T03430043  RH  015%=      5-min Rain = 0
KVA1 150322Z 10004KT 34/05 A3002 RMK A01 T03430045  RH  015%=      5-min Rain = 0
KVA1 150323Z 10005KT 34/04 A3002 RMK A01 T03430044  RH  015%=      5-min Rain = 0
KVA1 150324Z 10005KT 34/04 A3003 RMK A01 T03430044  RH  015%=      5-min Rain = 0
KVA1 150325Z 10005KT 34/05 A3003 RMK A01 T03430045  RH  016%=      5-min Rain = 0
KVA1 150326Z 10005KT 34/05 A3003 RMK A01 T03430045  RH  016%=      5-min Rain = 0
KVA1 150327Z 10004KT 34/05 A3003 RMK A01 T03420045  RH  016%=      5-min Rain = 0
KVA1 150328Z 10005KT 34/04 A3003 RMK A01 T03420044  RH  016%=      5-min Rain = 0
KVA1 150329Z 10005KT 34/04 A3003 RMK A01 T03420043  RH  015%=      5-min Rain = 0
KVA1 150330Z 10004KT 34/04 A3003 RMK A01 T03420044  RH  015%=      5-min Rain = 0
KVA1 150331Z 11004KT 34/04 A3003 RMK A01 T03420043  RH  015%=      5-min Rain = 0
KVA1 150332Z 11005KT 34/04 A3003 RMK A01 T03420043  RH  015%=      5-min Rain = 0
KVA1 150333Z 11005KT 34/04 A3003 RMK A01 T03420042  RH  015%=      5-min Rain = 0
KVA1 150334Z 11005KT 34/04 A3003 RMK A01 T03430042  RH  015%=      5-min Rain = 0
KVA1 150335Z 11005KT 34/04 A3003 RMK A01 T03430042  RH  015%=      5-min Rain = 0
KVA1 150336Z 10005KT 34/04 A3003 RMK A01 T03430042  RH  015%=      5-min Rain = 0
KVA1 150337Z 10004KT 34/04 A3003 RMK A01 T03440044  RH  015%=      5-min Rain = 0
KVA1 150338Z 10005KT 34/04 A3003 RMK A01 T03430044  RH  015%=      5-min Rain = 0
KVA1 150339Z 10005KT 34/04 A3003 RMK A01 T03420044  RH  016%=      5-min Rain = 0
KVA1 150340Z 10004KT 34/04 A3003 RMK A01 T03420043  RH  016%=      5-min Rain = 0
KVA1 150341Z 09004KT 34/04 A3003 RMK A01 T03420044  RH  016%=      5-min Rain = 0
KVA1 150342Z 10004KT 34/04 A3003 RMK A01 T03410043  RH  015%=      5-min Rain = 0
KVA1 150343Z 10003KT 34/04 A3003 RMK A01 T03410043  RH  016%=      5-min Rain = 0
KVA1 150344Z 10003KT 34/04 A3003 RMK A01 T03420044  RH  016%=      5-min Rain = 0
KVA1 150345Z 10003KT 34/04 A3003 RMK A01 T03410044  RH  016%=      5-min Rain = 0
KVA1 150346Z 09003KT 34/04 A3004 RMK A01 T03410043  RH  016%=      5-min Rain = 0
KVA1 150347Z 11003KT 34/04 A3004 RMK A01 T03400042  RH  016%=      5-min Rain = 0
KVA1 150348Z 09003KT 34/04 A3004 RMK A01 T03410042  RH  015%=      5-min Rain = 0
KVA1 150349Z 09002KT 34/04 A3004 RMK A01 T03410041  RH  015%=      5-min Rain = 0
KVA1 150350Z 10002KT 34/04 A3004 RMK A01 T03410042  RH  015%=      5-min Rain = 0
KVA1 150351Z 09002KT 34/04 A3004 RMK A01 T03410043  RH  016%=      5-min Rain = 0
KVA1 150352Z 09002KT 34/04 A3004 RMK A01 T03410043  RH  016%=      5-min Rain = 0
KVA1 150353Z 08003KT 34/04 A3004 RMK A01 T03400043  RH  016%=      5-min Rain = 0
KVA1 150354Z 08003KT 34/04 A3004 RMK A01 T03400042  RH  016%=      5-min Rain = 0
KVA1 150355Z 08003KT 34/04 A3004 RMK A01 T03400042  RH  015%=      5-min Rain = 0
KVA1 150356Z 08002KT 34/04 A3004 RMK A01 T03400042  RH  015%=      5-min Rain = 0
KVA1 150357Z 09002KT 34/04 A3004 RMK A01 T03400042  RH  015%=      5-min Rain = 0
KVA1 150358Z 09003KT 34/04 A3004 RMK A01 T03390041  RH  015%=      5-min Rain = 0
KVA1 150359Z 10003KT 34/04 A3004 RMK A01 T03390044  RH  016%=      5-min Rain = 0
KVA1 150400Z 10003KT 34/05 A3004 RMK A01 T03400045  RH  016%=      5-min Rain = 0
KVA1 150401Z 10003KT 34/05 A3004 RMK A01 T03390045  RH  016%=      5-min Rain = 0
KVA1 150402Z 10002KT 34/05 A3004 RMK A01 T03390045  RH  016%=      5-min Rain = 0
KVA1 150403Z 10003KT 34/05 A3004 RMK A01 T03390045  RH  016%=      5-min Rain = 0
KVA1 150404Z 09003KT 34/05 A3004 RMK A01 T03390045  RH  016%=      5-min Rain = 0
KVA1 150405Z 09002KT 34/04 A3004 RMK A01 T03380044  RH  016%=      5-min Rain = 0
KVA1 150406Z 09001KT 34/04 A3004 RMK A01 T03380044  RH  016%=      5-min Rain = 0
KVA1 150407Z 10001KT 34/04 A3004 RMK A01 T03380042  RH  016%=      5-min Rain = 0
KVA1 150408Z 12001KT 34/04 A3004 RMK A01 T03370042  RH  016%=      5-min Rain = 0
KVA1 150409Z 13003KT 34/04 A3004 RMK A01 T03370043  RH  016%=      5-min Rain = 0
KVA1 150410Z 14003KT 34/04 A3004 RMK A01 T03370041  RH  016%=      5-min Rain = 0
KVA1 150411Z 13006KT 34/04 A3004 RMK A01 T03370042  RH  016%=      5-min Rain = 0
KVA1 150412Z 13007KT 34/04 A3004 RMK A01 T03380041  RH  016%=      5-min Rain = 0
KVA1 150413Z 11007KT 34/04 A3004 RMK A01 T03390040  RH  015%=      5-min Rain = 0
KVA1 150414Z 12006KT 34/04 A3004 RMK A01 T03400040  RH  015%=      5-min Rain = 0
KVA1 150415Z 12006KT 34/04 A3003 RMK A01 T03400039  RH  015%=      5-min Rain = 0
KVA1 150416Z 12006KT 34/04 A3003 RMK A01 T03410039  RH  015%=      5-min Rain = 0
KVA1 150417Z 12006KT 34/04 A3003 RMK A01 T03410039  RH  015%=      5-min Rain = 0
KVA1 150418Z 13005KT 34/04 A3003 RMK A01 T03410039  RH  015%=      5-min Rain = 0
KVA1 150419Z 13006KT 34/04 A3003 RMK A01 T03410039  RH  015%=      5-min Rain = 0
KVA1 150420Z 14005KT 34/04 A3003 RMK A01 T03410038  RH  015%=      5-min Rain = 0
KVA1 150421Z 14005KT 34/04 A3003 RMK A01 T03420037  RH  015%=      5-min Rain = 0
KVA1 150422Z 13005KT 34/04 A3003 RMK A01 T03420037  RH  015%=      5-min Rain = 0
KVA1 150423Z 14005KT 34/04 A3003 RMK A01 T03420037  RH  015%=      5-min Rain = 0
KVA1 150424Z 14005KT 34/04 A3003 RMK A01 T03420037  RH  015%=      5-min Rain = 0
KVA1 150425Z 14005KT 34/04 A3003 RMK A01 T03420037  RH  015%=      5-min Rain = 0
KVA1 150426Z 14006KT 34/04 A3003 RMK A01 T03420036  RH  015%=      5-min Rain = 0
KVA1 150427Z 14006KT 34/04 A3003 RMK A01 T03410036  RH  015%=      5-min Rain = 0
KVA1 150428Z 15006KT 34/04 A3003 RMK A01 T03400036  RH  015%=      5-min Rain = 0
KVA1 150429Z 16007KT 34/04 A3004 RMK A01 T03400035  RH  015%=      5-min Rain = 0
KVA1 150430Z 15008KT 34/03 A3004 RMK A01 T03390034  RH  015%=      5-min Rain = 0
KVA1 150431Z 15007KT 34/03 A3004 RMK A01 T03390032  RH  015%=      5-min Rain = 0
KVA1 150432Z 16007KT 34/03 A3004 RMK A01 T03390032  RH  015%=      5-min Rain = 0
KVA1 150433Z 17007KT 34/03 A3004 RMK A01 T03390028  RH  014%=      5-min Rain = 0
KVA1 150434Z 18006KT 34/03 A3004 RMK A01 T03400027  RH  014%=      5-min Rain = 0
KVA1 150435Z 21005KT 34/03 A3004 RMK A01 T03410028  RH  014%=      5-min Rain = 0
KVA1 150436Z 21005KT 34/03 A3004 RMK A01 T03390030  RH  014%=      5-min Rain = 0
KVA1 150437Z 21004KT 34/03 A3004 RMK A01 T03370032  RH  015%=      5-min Rain = 0
KVA1 150438Z 22004KT 34/03 A3004 RMK A01 T03360032  RH  015%=      5-min Rain = 0
KVA1 150439Z 23005KT 34/03 A3004 RMK A01 T03350033  RH  015%=      5-min Rain = 0
KVA1 150440Z 22006KT 33/03 A3004 RMK A01 T03330034  RH  015%=      5-min Rain = 0
KVA1 150441Z 21005KT 33/03 A3004 RMK A01 T03320034  RH  015%=      5-min Rain = 0
KVA1 150442Z 20004KT 33/03 A3004 RMK A01 T03320034  RH  015%=      5-min Rain = 0
KVA1 150443Z 20004KT 33/03 A3004 RMK A01 T03310033  RH  015%=      5-min Rain = 0
KVA1 150444Z 19004KT 33/03 A3004 RMK A01 T03310032  RH  015%=      5-min Rain = 0
KVA1 150445Z 19004KT 33/03 A3004 RMK A01 T03310032  RH  015%=      5-min Rain = 0
KVA1 150446Z 19005KT 33/03 A3004 RMK A01 T03300029  RH  015%=      5-min Rain = 0
KVA1 150447Z 18006KT 33/03 A3004 RMK A01 T03310029  RH  015%=      5-min Rain = 0
KVA1 150448Z 18005KT 33/03 A3004 RMK A01 T03310028  RH  015%=      5-min Rain = 0
KVA1 150449Z 18005KT 33/03 A3004 RMK A01 T03310028  RH  015%=      5-min Rain = 0
KVA1 150450Z 18005KT 33/03 A3004 RMK A01 T03310028  RH  015%=      5-min Rain = 0
KVA1 150451Z 18006KT 33/03 A3004 RMK A01 T03310027  RH  015%=      5-min Rain = 0
KVA1 150452Z 18005KT 33/03 A3004 RMK A01 T03310026  RH  015%=      5-min Rain = 0
KVA1 150453Z 18005KT 33/03 A3004 RMK A01 T03310026  RH  015%=      5-min Rain = 0
KVA1 150454Z 18005KT 33/03 A3004 RMK A01 T03310026  RH  014%=      5-min Rain = 0
KVA1 150455Z 17006KT 33/03 A3004 RMK A01 T03320025  RH  014%=      5-min Rain = 0
KVA1 150456Z 17008KT 33/03 A3004 RMK A01 T03320025  RH  014%=      5-min Rain = 0
KVA1 150457Z 17009KT 33/03 A3004 RMK A01 T03330025  RH  014%=      5-min Rain = 0
KVA1 150458Z 17008KT 34/03 A3004 RMK A01 T03350025  RH  014%=      5-min Rain = 0
KVA1 150459Z 17009KT 34/03 A3004 RMK A01 T03360025  RH  014%=      5-min Rain = 0

Page generated in 0.0708 seconds.